Observation data for Coyanosa on 10/13/2019      Previous  Date       Current Mesonet Observations  Soil Data  Daily Summary Page  Observations in Plain Language
KCO1 130500Z 11006KT 12/M01 A30 RMK A01 T01231010  RH  040%=      5-min Rain = 0
KCO1 130501Z 11006KT 12/M01 A30 RMK A01 T01221010  RH  040%=      5-min Rain = 0
KCO1 130502Z 11006KT 12/M01 A30 RMK A01 T01221010  RH  040%=      5-min Rain = 0
KCO1 130503Z 11006KT 12/M01 A30 RMK A01 T01221010  RH  040%=      5-min Rain = 0
KCO1 130504Z 11006KT 12/M01 A30 RMK A01 T01221009  RH  040%=      5-min Rain = 0
KCO1 130505Z 11006KT 12/M01 A30 RMK A01 T01211009  RH  040%=      5-min Rain = 0
KCO1 130506Z 11006KT 12/M01 A30 RMK A01 T01211009  RH  041%=      5-min Rain = 0
KCO1 130507Z 11006KT 12/M01 A30 RMK A01 T01201009  RH  041%=      5-min Rain = 0
KCO1 130508Z 11006KT 12/M01 A30 RMK A01 T01201009  RH  041%=      5-min Rain = 0
KCO1 130509Z 11006KT 12/M01 A30 RMK A01 T01201009  RH  041%=      5-min Rain = 0
KCO1 130510Z 11007KT 12/M01 A30 RMK A01 T01191009  RH  041%=      5-min Rain = 0
KCO1 130511Z 11007KT 12/M01 A30 RMK A01 T01191009  RH  041%=      5-min Rain = 0
KCO1 130512Z 11007KT 12/M01 A30 RMK A01 T01181009  RH  041%=      5-min Rain = 0
KCO1 130513Z 11006KT 12/M01 A30 RMK A01 T01181009  RH  041%=      5-min Rain = 0
KCO1 130514Z 12004KT 12/M01 A30 RMK A01 T01181009  RH  041%=      5-min Rain = 0
KCO1 130515Z 13003KT 12/M01 A30 RMK A01 T01181009  RH  041%=      5-min Rain = 0
KCO1 130516Z 12004KT 12/M01 A30 RMK A01 T01171009  RH  042%=      5-min Rain = 0
KCO1 130517Z 11005KT 12/M01 A30 RMK A01 T01171009  RH  042%=      5-min Rain = 0
KCO1 130518Z 11005KT 12/M01 A30 RMK A01 T01161009  RH  042%=      5-min Rain = 0
KCO1 130519Z 11005KT 12/M01 A30 RMK A01 T01161009  RH  042%=      5-min Rain = 0
KCO1 130520Z 11005KT 12/M01 A30 RMK A01 T01161008  RH  042%=      5-min Rain = 0
KCO1 130521Z 10004KT 12/M01 A30 RMK A01 T01151009  RH  042%=      5-min Rain = 0
KCO1 130522Z 10004KT 12/M01 A30 RMK A01 T01151009  RH  042%=      5-min Rain = 0
KCO1 130523Z 09004KT 11/M01 A30 RMK A01 T01141009  RH  042%=      5-min Rain = 0
KCO1 130524Z 09004KT 11/M01 A30 RMK A01 T01141009  RH  042%=      5-min Rain = 0
KCO1 130525Z 09003KT 11/M01 A30 RMK A01 T01141009  RH  042%=      5-min Rain = 0
KCO1 130526Z 08003KT 11/M01 A30 RMK A01 T01141009  RH  042%=      5-min Rain = 0
KCO1 130527Z 08003KT 11/M01 A30 RMK A01 T01141010  RH  042%=      5-min Rain = 0
KCO1 130528Z 07003KT 11/M01 A30 RMK A01 T01141010  RH  042%=      5-min Rain = 0
KCO1 130529Z 07003KT 11/M01 A30 RMK A01 T01141009  RH  042%=      5-min Rain = 0
KCO1 130530Z 07003KT 11/M01 A30 RMK A01 T01141009  RH  042%=      5-min Rain = 0
KCO1 130531Z 06003KT 11/M01 A30 RMK A01 T01141009  RH  042%=      5-min Rain = 0
KCO1 130532Z 07003KT 11/M01 A30 RMK A01 T01141009  RH  042%=      5-min Rain = 0
KCO1 130533Z 07003KT 11/M01 A30 RMK A01 T01141009  RH  043%=      5-min Rain = 0
KCO1 130534Z 07003KT 11/M01 A30 RMK A01 T01131009  RH  043%=      5-min Rain = 0
KCO1 130535Z 07003KT 11/M01 A30 RMK A01 T01131010  RH  043%=      5-min Rain = 0
KCO1 130536Z 07003KT 11/M01 A30 RMK A01 T01131010  RH  042%=      5-min Rain = 0
KCO1 130537Z 07003KT 11/M01 A30 RMK A01 T01131011  RH  042%=      5-min Rain = 0
KCO1 130538Z 08004KT 11/M01 A30 RMK A01 T01131011  RH  042%=      5-min Rain = 0
KCO1 130539Z 08004KT 11/M01 A2999 RMK A01 T01131009  RH  043%=      5-min Rain = 0
KCO1 130540Z 09005KT 11/M01 A2999 RMK A01 T01111009  RH  043%=      5-min Rain = 0
KCO1 130541Z 09005KT 11/M01 A2999 RMK A01 T01111010  RH  043%=      5-min Rain = 0
KCO1 130542Z 09005KT 11/M01 A2999 RMK A01 T01111009  RH  043%=      5-min Rain = 0
KCO1 130543Z 09005KT 11/M01 A2999 RMK A01 T01111009  RH  043%=      5-min Rain = 0
KCO1 130544Z 10004KT 11/M01 A2999 RMK A01 T01101009  RH  043%=      5-min Rain = 0
KCO1 130545Z 10005KT 11/M01 A2999 RMK A01 T01101009  RH  043%=      5-min Rain = 0
KCO1 130546Z 10005KT 11/M01 A2999 RMK A01 T01101009  RH  044%=      5-min Rain = 0
KCO1 130547Z 10005KT 11/M01 A2999 RMK A01 T01101009  RH  044%=      5-min Rain = 0
KCO1 130548Z 10004KT 11/M01 A2999 RMK A01 T01091009  RH  044%=      5-min Rain = 0
KCO1 130549Z 10004KT 11/M01 A2999 RMK A01 T01091009  RH  044%=      5-min Rain = 0
KCO1 130550Z 10004KT 11/M01 A2999 RMK A01 T01101009  RH  044%=      5-min Rain = 0
KCO1 130551Z 09003KT 11/M01 A2999 RMK A01 T01111009  RH  044%=      5-min Rain = 0
KCO1 130552Z 09004KT 11/M01 A2999 RMK A01 T01101009  RH  044%=      5-min Rain = 0
KCO1 130553Z 09004KT 11/M01 A2999 RMK A01 T01101009  RH  044%=      5-min Rain = 0
KCO1 130554Z 09005KT 11/M01 A2999 RMK A01 T01101009  RH  043%=      5-min Rain = 0
KCO1 130555Z 09005KT 11/M01 A2999 RMK A01 T01101009  RH  044%=      5-min Rain = 0
KCO1 130556Z 09005KT 11/M01 A2999 RMK A01 T01101009  RH  044%=      5-min Rain = 0
KCO1 130557Z 09006KT 11/M01 A2999 RMK A01 T01091009  RH  044%=      5-min Rain = 0
KCO1 130558Z 10006KT 11/M01 A2999 RMK A01 T01091009  RH  044%=      5-min Rain = 0
KCO1 130559Z 10005KT 11/M01 A2999 RMK A01 T01081009  RH  044%=      5-min Rain = 0
KCO1 130600Z 10005KT 11/M01 A2999 RMK A01 T01081009  RH  044%=      5-min Rain = 0
KCO1 130601Z 10006KT 11/M01 A2999 RMK A01 T01081009  RH  044%=      5-min Rain = 0
KCO1 130602Z 11005KT 11/M01 A2999 RMK A01 T01081009  RH  044%=      5-min Rain = 0
KCO1 130603Z 11004KT 11/M01 A2999 RMK A01 T01081009  RH  044%=      5-min Rain = 0
KCO1 130604Z 11004KT 11/M01 A2999 RMK A01 T01081009  RH  044%=      5-min Rain = 0
KCO1 130605Z 10004KT 11/M01 A2999 RMK A01 T01081010  RH  044%=      5-min Rain = 0
KCO1 130606Z 10004KT 11/M01 A2999 RMK A01 T01081009  RH  044%=      5-min Rain = 0
KCO1 130607Z 09004KT 11/M01 A2999 RMK A01 T01081009  RH  044%=      5-min Rain = 0
KCO1 130608Z 10005KT 11/M01 A2999 RMK A01 T01081009  RH  044%=      5-min Rain = 0
KCO1 130609Z 09005KT 11/M01 A2999 RMK A01 T01081009  RH  044%=      5-min Rain = 0
KCO1 130610Z 09006KT 11/M01 A2999 RMK A01 T01081010  RH  044%=      5-min Rain = 0
KCO1 130611Z 09006KT 11/M01 A2999 RMK A01 T01081010  RH  044%=      5-min Rain = 0
KCO1 130612Z 08005KT 11/M01 A2999 RMK A01 T01081010  RH  044%=      5-min Rain = 0
KCO1 130613Z 09004KT 11/M01 A2999 RMK A01 T01081010  RH  044%=      5-min Rain = 0
KCO1 130614Z 09004KT 11/M01 A2999 RMK A01 T01081009  RH  044%=      5-min Rain = 0
KCO1 130615Z 09004KT 11/M01 A2999 RMK A01 T01081008  RH  045%=      5-min Rain = 0
KCO1 130616Z 10004KT 11/M01 A2999 RMK A01 T01071009  RH  045%=      5-min Rain = 0
KCO1 130617Z 10003KT 11/M01 A2999 RMK A01 T01061009  RH  045%=      5-min Rain = 0
KCO1 130618Z 10003KT 11/M01 A2999 RMK A01 T01051008  RH  045%=      5-min Rain = 0
KCO1 130619Z 11003KT 11/M01 A2999 RMK A01 T01051009  RH  045%=      5-min Rain = 0
KCO1 130620Z 10003KT 10/M01 A2999 RMK A01 T01041009  RH  045%=      5-min Rain = 0
KCO1 130621Z 10003KT 10/M01 A2999 RMK A01 T01041010  RH  045%=      5-min Rain = 0
KCO1 130622Z 10003KT 10/M01 A2999 RMK A01 T01041010  RH  045%=      5-min Rain = 0
KCO1 130623Z 10003KT 10/M01 A2999 RMK A01 T01041010  RH  045%=      5-min Rain = 0
KCO1 130624Z 09003KT 10/M01 A2999 RMK A01 T01041010  RH  045%=      5-min Rain = 0
KCO1 130625Z 08003KT 10/M01 A2999 RMK A01 T01041010  RH  045%=      5-min Rain = 0
KCO1 130626Z 09003KT 10/M01 A2999 RMK A01 T01041010  RH  045%=      5-min Rain = 0
KCO1 130627Z 09003KT 10/M01 A2999 RMK A01 T01041010  RH  045%=      5-min Rain = 0
KCO1 130628Z 09003KT 10/M01 A2999 RMK A01 T01041010  RH  045%=      5-min Rain = 0
KCO1 130629Z 10003KT 10/M01 A2999 RMK A01 T01031009  RH  046%=      5-min Rain = 0
KCO1 130630Z 10003KT 10/M01 A2999 RMK A01 T01031009  RH  046%=      5-min Rain = 0
KCO1 130631Z 11003KT 10/M01 A2999 RMK A01 T01021008  RH  046%=      5-min Rain = 0
KCO1 130632Z 11003KT 10/M01 A2999 RMK A01 T01011008  RH  047%=      5-min Rain = 0
KCO1 130633Z 11003KT 10/M01 A2999 RMK A01 T01011008  RH  047%=      5-min Rain = 0
KCO1 130634Z 11003KT 10/M01 A2999 RMK A01 T01001009  RH  047%=      5-min Rain = 0
KCO1 130635Z 11003KT 10/M01 A2999 RMK A01 T01001008  RH  047%=      5-min Rain = 0
KCO1 130636Z 11003KT 10/M01 A2999 RMK A01 T01001008  RH  047%=      5-min Rain = 0
KCO1 130637Z 11002KT 10/M01 A2999 RMK A01 T01001009  RH  047%=      5-min Rain = 0
KCO1 130638Z 11002KT 10/M01 A2999 RMK A01 T01001009  RH  047%=      5-min Rain = 0
KCO1 130639Z 11002KT 10/M01 A2999 RMK A01 T01001008  RH  047%=      5-min Rain = 0
KCO1 130640Z 11002KT 10/M01 A2999 RMK A01 T01001009  RH  047%=      5-min Rain = 0
KCO1 130641Z 11002KT 10/M01 A2999 RMK A01 T01001009  RH  047%=      5-min Rain = 0
KCO1 130642Z 12002KT 10/M01 A2999 RMK A01 T01001010  RH  046%=      5-min Rain = 0
KCO1 130643Z 12003KT 10/M01 A2999 RMK A01 T01011010  RH  046%=      5-min Rain = 0
KCO1 130644Z 13002KT 10/M01 A2999 RMK A01 T01021011  RH  046%=      5-min Rain = 0
KCO1 130645Z 13002KT 10/M01 A2999 RMK A01 T01031011  RH  045%=      5-min Rain = 0
KCO1 130646Z 13002KT 10/M01 A2999 RMK A01 T01031011  RH  045%=      5-min Rain = 0
KCO1 130647Z 13002KT 10/M01 A2999 RMK A01 T01031010  RH  045%=      5-min Rain = 0
KCO1 130648Z 13003KT 10/M01 A2999 RMK A01 T01031010  RH  046%=      5-min Rain = 0
KCO1 130649Z 13002KT 10/M01 A2999 RMK A01 T01021009  RH  046%=      5-min Rain = 0
KCO1 130650Z 12002KT 10/M01 A2999 RMK A01 T01021009  RH  046%=      5-min Rain = 0
KCO1 130651Z 11003KT 10/M01 A2999 RMK A01 T01011010  RH  046%=      5-min Rain = 0
KCO1 130652Z 11003KT 10/M01 A2999 RMK A01 T01011011  RH  046%=      5-min Rain = 0
KCO1 130653Z 12003KT 10/M01 A2999 RMK A01 T01011011  RH  046%=      5-min Rain = 0
KCO1 130654Z 12002KT 10/M01 A2999 RMK A01 T01011010  RH  046%=      5-min Rain = 0
KCO1 130655Z 12003KT 10/M01 A2999 RMK A01 T01001010  RH  046%=      5-min Rain = 0
KCO1 130656Z 11003KT 10/M01 A2999 RMK A01 T00991010  RH  047%=      5-min Rain = 0
KCO1 130657Z 11002KT 10/M01 A2999 RMK A01 T00981009  RH  047%=      5-min Rain = 0
KCO1 130658Z 11002KT 10/M01 A2999 RMK A01 T00971007  RH  048%=      5-min Rain = 0
KCO1 130659Z 12002KT 10/M01 A2999 RMK A01 T00951008  RH  049%=      5-min Rain = 0
KCO1 130700Z 12002KT 10/M01 A2999 RMK A01 T00951008  RH  049%=      5-min Rain = 0
KCO1 130701Z 12002KT 10/M01 A2999 RMK A01 T00951008  RH  049%=      5-min Rain = 0
KCO1 130702Z 12002KT 09/M01 A2999 RMK A01 T00941008  RH  049%=      5-min Rain = 0
KCO1 130703Z 12001KT 09/M01 A2999 RMK A01 T00941009  RH  049%=      5-min Rain = 0
KCO1 130704Z 11002KT 09/M01 A2999 RMK A01 T00941009  RH  048%=      5-min Rain = 0
KCO1 130705Z 11002KT 10/M01 A2999 RMK A01 T00951009  RH  048%=      5-min Rain = 0
KCO1 130706Z 11003KT 10/M01 A2999 RMK A01 T00951009  RH  048%=      5-min Rain = 0
KCO1 130707Z 11003KT 10/M01 A2999 RMK A01 T00951008  RH  048%=      5-min Rain = 0
KCO1 130708Z 11003KT 10/M01 A2999 RMK A01 T00951006  RH  049%=      5-min Rain = 0
KCO1 130709Z 11003KT 09/M01 A2999 RMK A01 T00941005  RH  050%=      5-min Rain = 0
KCO1 130710Z 11004KT 09/M00 A2999 RMK A01 T00921004  RH  051%=      5-min Rain = 0
KCO1 130711Z 10004KT 09/M00 A2999 RMK A01 T00911004  RH  051%=      5-min Rain = 0
KCO1 130712Z 09003KT 09/M01 A2999 RMK A01 T00901006  RH  051%=      5-min Rain = 0
KCO1 130713Z 10003KT 09/M01 A2999 RMK A01 T00891007  RH  051%=      5-min Rain = 0
KCO1 130714Z 09002KT 09/M01 A2999 RMK A01 T00891006  RH  052%=      5-min Rain = 0
KCO1 130715Z 09002KT 09/M01 A2999 RMK A01 T00891006  RH  051%=      5-min Rain = 0
KCO1 130716Z 12003KT 09/M01 A2999 RMK A01 T00901007  RH  051%=      5-min Rain = 0
KCO1 130717Z 13003KT 09/M01 A2999 RMK A01 T00911008  RH  050%=      5-min Rain = 0
KCO1 130718Z 14003KT 09/M01 A2999 RMK A01 T00921008  RH  050%=      5-min Rain = 0
KCO1 130719Z 13003KT 09/M01 A2999 RMK A01 T00931007  RH  050%=      5-min Rain = 0
KCO1 130720Z 14003KT 09/M01 A2999 RMK A01 T00931007  RH  050%=      5-min Rain = 0
KCO1 130721Z 14003KT 09/M01 A2999 RMK A01 T00931007  RH  049%=      5-min Rain = 0
KCO1 130722Z 16001KT 09/M01 A2999 RMK A01 T00931007  RH  050%=      5-min Rain = 0
KCO1 130723Z 15002KT 09/M01 A2999 RMK A01 T00931007  RH  050%=      5-min Rain = 0
KCO1 130724Z 13002KT 09/M01 A2999 RMK A01 T00931008  RH  049%=      5-min Rain = 0
KCO1 130725Z 13002KT 09/M01 A2999 RMK A01 T00941008  RH  049%=      5-min Rain = 0
KCO1 130726Z 12001KT 09/M01 A2999 RMK A01 T00941008  RH  049%=      5-min Rain = 0
KCO1 130727Z 13002KT 10/M01 A2999 RMK A01 T00951008  RH  049%=      5-min Rain = 0
KCO1 130728Z 13002KT 10/M01 A2999 RMK A01 T00951008  RH  049%=      5-min Rain = 0
KCO1 130729Z 12002KT 10/M01 A2999 RMK A01 T00961008  RH  048%=      5-min Rain = 0
KCO1 130730Z 11002KT 10/M01 A2999 RMK A01 T00961008  RH  048%=      5-min Rain = 0
KCO1 130731Z 08002KT 10/M01 A2999 RMK A01 T00961007  RH  049%=      5-min Rain = 0
KCO1 130732Z 08002KT 10/M01 A2999 RMK A01 T00951007  RH  049%=      5-min Rain = 0
KCO1 130733Z 09002KT 10/M01 A2999 RMK A01 T00951006  RH  049%=      5-min Rain = 0
KCO1 130734Z 09003KT 10/M01 A2999 RMK A01 T00951006  RH  049%=      5-min Rain = 0
KCO1 130735Z 09003KT 09/M01 A2999 RMK A01 T00941006  RH  050%=      5-min Rain = 0
KCO1 130736Z 10004KT 09/M01 A2999 RMK A01 T00931005  RH  050%=      5-min Rain = 0
KCO1 130737Z 11004KT 09/M00 A2999 RMK A01 T00921004  RH  051%=      5-min Rain = 0
KCO1 130738Z 12005KT 09/M00 A2999 RMK A01 T00901004  RH  052%=      5-min Rain = 0
KCO1 130739Z 12006KT 09/M01 A2999 RMK A01 T00881005  RH  052%=      5-min Rain = 0
KCO1 130740Z 13006KT 09/M00 A2999 RMK A01 T00871004  RH  053%=      5-min Rain = 0
KCO1 130741Z 14005KT 09/M01 A2999 RMK A01 T00861005  RH  053%=      5-min Rain = 0
KCO1 130742Z 14005KT 09/M01 A2999 RMK A01 T00861005  RH  053%=      5-min Rain = 0
KCO1 130743Z 13005KT 09/M01 A2999 RMK A01 T00861005  RH  053%=      5-min Rain = 0
KCO1 130744Z 13005KT 09/M00 A2999 RMK A01 T00861004  RH  053%=      5-min Rain = 0
KCO1 130745Z 12004KT 09/M00 A2999 RMK A01 T00861004  RH  053%=      5-min Rain = 0
KCO1 130746Z 12004KT 09/M00 A2999 RMK A01 T00861004  RH  053%=      5-min Rain = 0
KCO1 130747Z 12004KT 09/M00 A2999 RMK A01 T00861004  RH  053%=      5-min Rain = 0
KCO1 130748Z 11004KT 09/M00 A2999 RMK A01 T00861004  RH  053%=      5-min Rain = 0
KCO1 130749Z 11004KT 09/M00 A2999 RMK A01 T00861004  RH  053%=      5-min Rain = 0
KCO1 130750Z 11003KT 09/M00 A2999 RMK A01 T00861004  RH  053%=      5-min Rain = 0
KCO1 130751Z 11004KT 09/M00 A2999 RMK A01 T00861003  RH  053%=      5-min Rain = 0
KCO1 130752Z 11003KT 09/M00 A2999 RMK A01 T00861004  RH  053%=      5-min Rain = 0
KCO1 130753Z 11004KT 09/M01 A2999 RMK A01 T00861005  RH  053%=      5-min Rain = 0
KCO1 130754Z 11004KT 09/M01 A2999 RMK A01 T00861005  RH  053%=      5-min Rain = 0
KCO1 130755Z 11005KT 09/M01 A2999 RMK A01 T00871005  RH  053%=      5-min Rain = 0
KCO1 130756Z 12005KT 09/M00 A2999 RMK A01 T00871003  RH  053%=      5-min Rain = 0
KCO1 130757Z 12005KT 09/M00 A2999 RMK A01 T00861002  RH  054%=      5-min Rain = 0
KCO1 130758Z 13005KT 08/M00 A2999 RMK A01 T00841002  RH  054%=      5-min Rain = 0
KCO1 130759Z 13005KT 08/M00 A2999 RMK A01 T00841003  RH  054%=      5-min Rain = 0
KCO1 130800Z 14004KT 08/M00 A2999 RMK A01 T00841002  RH  055%=      5-min Rain = 0
KCO1 130801Z 14004KT 08/M00 A2999 RMK A01 T00841003  RH  055%=      5-min Rain = 0
KCO1 130802Z 15003KT 08/M00 A2999 RMK A01 T00841002  RH  055%=      5-min Rain = 0
KCO1 130803Z 15003KT 08/M00 A2999 RMK A01 T00831002  RH  055%=      5-min Rain = 0
KCO1 130804Z 18003KT 08/M00 A2999 RMK A01 T00831002  RH  055%=      5-min Rain = 0
KCO1 130805Z 20003KT 08/M00 A2999 RMK A01 T00831003  RH  055%=      5-min Rain = 0
KCO1 130806Z 21003KT 08/M00 A2999 RMK A01 T00841003  RH  054%=      5-min Rain = 0
KCO1 130807Z 21003KT 08/M00 A2999 RMK A01 T00841002  RH  055%=      5-min Rain = 0
KCO1 130808Z 22003KT 08/M00 A2999 RMK A01 T00841001  RH  055%=      5-min Rain = 0
KCO1 130809Z 22003KT 09/M00 A2999 RMK A01 T00851001  RH  055%=      5-min Rain = 0
KCO1 130810Z 23004KT 09/00 A2999 RMK A01 T00870000  RH  054%=      5-min Rain = 0
KCO1 130811Z 23004KT 09/00 A2999 RMK A01 T00900001  RH  054%=      5-min Rain = 0
KCO1 130812Z 23004KT 09/00 A2999 RMK A01 T00910002  RH  054%=      5-min Rain = 0
KCO1 130813Z 23004KT 09/00 A2999 RMK A01 T00900004  RH  055%=      5-min Rain = 0
KCO1 130814Z 23004KT 09/00 A2999 RMK A01 T00890004  RH  055%=      5-min Rain = 0
KCO1 130815Z 22004KT 09/00 A2999 RMK A01 T00890004  RH  056%=      5-min Rain = 0
KCO1 130816Z 22005KT 09/01 A2999 RMK A01 T00880005  RH  056%=      5-min Rain = 0
KCO1 130817Z 22004KT 09/01 A2999 RMK A01 T00870005  RH  057%=      5-min Rain = 0
KCO1 130818Z 23004KT 09/01 A2999 RMK A01 T00870008  RH  058%=      5-min Rain = 0
KCO1 130819Z 23004KT 09/01 A2999 RMK A01 T00870009  RH  058%=      5-min Rain = 0
KCO1 130820Z 23005KT 09/01 A2999 RMK A01 T00890014  RH  059%=      5-min Rain = 0
KCO1 130821Z 23005KT 09/02 A2999 RMK A01 T00930017  RH  059%=      5-min Rain = 0
KCO1 130822Z 23004KT 10/02 A2999 RMK A01 T00960019  RH  059%=      5-min Rain = 0
KCO1 130823Z 23004KT 10/02 A2999 RMK A01 T00980020  RH  058%=      5-min Rain = 0
KCO1 130824Z 23004KT 10/02 A2999 RMK A01 T01000020  RH  057%=      5-min Rain = 0
KCO1 130825Z 22003KT 10/02 A2999 RMK A01 T01020019  RH  057%=      5-min Rain = 0
KCO1 130826Z 23003KT 10/02 A2999 RMK A01 T01030019  RH  056%=      5-min Rain = 0
KCO1 130827Z 23002KT 10/02 A2999 RMK A01 T01030018  RH  056%=      5-min Rain = 0
KCO1 130828Z 23003KT 10/02 A2999 RMK A01 T01030018  RH  056%=      5-min Rain = 0
KCO1 130829Z 23003KT 10/02 A2999 RMK A01 T01010017  RH  056%=      5-min Rain = 0
KCO1 130830Z 24003KT 10/02 A2999 RMK A01 T01010018  RH  056%=      5-min Rain = 0
KCO1 130831Z 24003KT 10/02 A2999 RMK A01 T01000017  RH  056%=      5-min Rain = 0
KCO1 130832Z 24004KT 10/02 A2999 RMK A01 T01000017  RH  056%=      5-min Rain = 0
KCO1 130833Z 24003KT 10/02 A2999 RMK A01 T01000018  RH  056%=      5-min Rain = 0
KCO1 130834Z 24003KT 10/02 A2999 RMK A01 T01000018  RH  057%=      5-min Rain = 0
KCO1 130835Z 24003KT 10/02 A2999 RMK A01 T00990019  RH  057%=      5-min Rain = 0
KCO1 130836Z 26002KT 10/02 A2999 RMK A01 T00990019  RH  057%=      5-min Rain = 0
KCO1 130837Z 27002KT 10/02 A2999 RMK A01 T00990019  RH  058%=      5-min Rain = 0
KCO1 130838Z 29002KT 10/02 A2999 RMK A01 T00990018  RH  057%=      5-min Rain = 0
KCO1 130839Z 28002KT 10/02 A2999 RMK A01 T00980015  RH  056%=      5-min Rain = 0
KCO1 130840Z 28002KT 10/01 A2999 RMK A01 T00950012  RH  056%=      5-min Rain = 0
KCO1 130841Z 26003KT 09/01 A2999 RMK A01 T00930011  RH  057%=      5-min Rain = 0
KCO1 130842Z 26003KT 09/01 A2998 RMK A01 T00920013  RH  057%=      5-min Rain = 0
KCO1 130843Z 25003KT 09/02 A2998 RMK A01 T00920015  RH  059%=      5-min Rain = 0
KCO1 130844Z 26003KT 09/02 A2998 RMK A01 T00920017  RH  059%=      5-min Rain = 0
KCO1 130845Z 26002KT 09/02 A2998 RMK A01 T00920017  RH  059%=      5-min Rain = 0
KCO1 130846Z 25001KT 09/02 A2998 RMK A01 T00920017  RH  060%=      5-min Rain = 0
KCO1 130847Z 24001KT 09/02 A2998 RMK A01 T00920019  RH  060%=      5-min Rain = 0
KCO1 130848Z 23001KT 09/02 A2998 RMK A01 T00930021  RH  061%=      5-min Rain = 0
KCO1 130849Z 21001KT 09/02 A2998 RMK A01 T00930020  RH  060%=      5-min Rain = 0
KCO1 130850Z 19001KT 09/02 A2998 RMK A01 T00940019  RH  060%=      5-min Rain = 0
KCO1 130851Z 17002KT 09/02 A2998 RMK A01 T00940019  RH  059%=      5-min Rain = 0
KCO1 130852Z 18002KT 09/02 A2998 RMK A01 T00940020  RH  060%=      5-min Rain = 0
KCO1 130853Z 17002KT 09/02 A2998 RMK A01 T00930018  RH  059%=      5-min Rain = 0
KCO1 130854Z 19002KT 09/01 A2998 RMK A01 T00900014  RH  059%=      5-min Rain = 0
KCO1 130855Z 20001KT 09/01 A2998 RMK A01 T00880012  RH  059%=      5-min Rain = 0
KCO1 130856Z 20001KT 09/01 A2998 RMK A01 T00870013  RH  060%=      5-min Rain = 0
KCO1 130857Z 21002KT 09/01 A2998 RMK A01 T00860013  RH  060%=      5-min Rain = 0
KCO1 130858Z 21002KT 08/01 A2998 RMK A01 T00840012  RH  061%=      5-min Rain = 0
KCO1 130859Z 21003KT 08/01 A2998 RMK A01 T00830011  RH  061%=      5-min Rain = 0
KCO1 130900Z 21003KT 08/01 A2998 RMK A01 T00820010  RH  060%=      5-min Rain = 0
KCO1 130901Z 21004KT 08/01 A2998 RMK A01 T00810009  RH  060%=      5-min Rain = 0
KCO1 130902Z 22004KT 08/01 A2998 RMK A01 T00810010  RH  061%=      5-min Rain = 0
KCO1 130903Z 22004KT 08/01 A2998 RMK A01 T00810012  RH  061%=      5-min Rain = 0
KCO1 130904Z 21004KT 08/01 A2998 RMK A01 T00810013  RH  062%=      5-min Rain = 0
KCO1 130905Z 21004KT 08/01 A2998 RMK A01 T00810014  RH  063%=      5-min Rain = 0
KCO1 130906Z 20003KT 08/01 A2998 RMK A01 T00810014  RH  063%=      5-min Rain = 0
KCO1 130907Z 20003KT 08/02 A2998 RMK A01 T00810015  RH  063%=      5-min Rain = 0
KCO1 130908Z 19003KT 08/02 A2998 RMK A01 T00820016  RH  063%=      5-min Rain = 0
KCO1 130909Z 18003KT 08/02 A2998 RMK A01 T00840017  RH  063%=      5-min Rain = 0
KCO1 130910Z 18003KT 08/02 A2998 RMK A01 T00840016  RH  062%=      5-min Rain = 0
KCO1 130911Z 17003KT 08/01 A2998 RMK A01 T00840014  RH  061%=      5-min Rain = 0
KCO1 130912Z 17003KT 08/01 A2998 RMK A01 T00830013  RH  061%=      5-min Rain = 0
KCO1 130913Z 17004KT 08/01 A2998 RMK A01 T00840013  RH  061%=      5-min Rain = 0
KCO1 130914Z 18004KT 08/01 A2998 RMK A01 T00840013  RH  061%=      5-min Rain = 0
KCO1 130915Z 18004KT 09/02 A2998 RMK A01 T00850015  RH  061%=      5-min Rain = 0
KCO1 130916Z 19005KT 09/02 A2998 RMK A01 T00860018  RH  062%=      5-min Rain = 0
KCO1 130917Z 19005KT 09/02 A2998 RMK A01 T00890020  RH  062%=      5-min Rain = 0
KCO1 130918Z 19005KT 09/02 A2998 RMK A01 T00900021  RH  062%=      5-min Rain = 0
KCO1 130919Z 19005KT 09/02 A2998 RMK A01 T00910023  RH  062%=      5-min Rain = 0
KCO1 130920Z 19005KT 09/02 A2998 RMK A01 T00920024  RH  062%=      5-min Rain = 0
KCO1 130921Z 19005KT 09/03 A2998 RMK A01 T00940025  RH  062%=      5-min Rain = 0
KCO1 130922Z 19005KT 10/03 A2998 RMK A01 T00950026  RH  062%=      5-min Rain = 0
KCO1 130923Z 19005KT 10/03 A2998 RMK A01 T00950026  RH  062%=      5-min Rain = 0
KCO1 130924Z 19004KT 10/03 A2998 RMK A01 T00950025  RH  062%=      5-min Rain = 0
KCO1 130925Z 19002KT 10/03 A2998 RMK A01 T00950025  RH  062%=      5-min Rain = 0
KCO1 130926Z 20002KT 09/03 A2998 RMK A01 T00940025  RH  062%=      5-min Rain = 0
KCO1 130927Z 20003KT 09/03 A2998 RMK A01 T00940025  RH  062%=      5-min Rain = 0
KCO1 130928Z 20002KT 09/03 A2998 RMK A01 T00940025  RH  062%=      5-min Rain = 0
KCO1 130929Z 20002KT 09/03 A2998 RMK A01 T00940025  RH  062%=      5-min Rain = 0
KCO1 130930Z 20003KT 09/03 A2998 RMK A01 T00930025  RH  062%=      5-min Rain = 0
KCO1 130931Z 20004KT 09/03 A2998 RMK A01 T00930025  RH  063%=      5-min Rain = 0
KCO1 130932Z 21004KT 09/03 A2998 RMK A01 T00930026  RH  063%=      5-min Rain = 0
KCO1 130933Z 22004KT 09/03 A2998 RMK A01 T00930027  RH  063%=      5-min Rain = 0
KCO1 130934Z 22004KT 09/03 A2998 RMK A01 T00920027  RH  064%=      5-min Rain = 0
KCO1 130935Z 22004KT 09/03 A2999 RMK A01 T00920027  RH  064%=      5-min Rain = 0
KCO1 130936Z 22005KT 09/03 A2999 RMK A01 T00930027  RH  063%=      5-min Rain = 0
KCO1 130937Z 22005KT 09/03 A2999 RMK A01 T00930027  RH  063%=      5-min Rain = 0
KCO1 130938Z 21004KT 09/03 A2999 RMK A01 T00930027  RH  063%=      5-min Rain = 0
KCO1 130939Z 20003KT 09/03 A2999 RMK A01 T00930027  RH  063%=      5-min Rain = 0
KCO1 130940Z 20003KT 09/03 A2999 RMK A01 T00930027  RH  063%=      5-min Rain = 0
KCO1 130941Z 19004KT 09/03 A2999 RMK A01 T00920027  RH  063%=      5-min Rain = 0
KCO1 130942Z 18003KT 09/03 A2999 RMK A01 T00910026  RH  064%=      5-min Rain = 0
KCO1 130943Z 15003KT 09/03 A2999 RMK A01 T00900025  RH  064%=      5-min Rain = 0
KCO1 130944Z 13002KT 09/03 A2999 RMK A01 T00900026  RH  064%=      5-min Rain = 0
KCO1 130945Z 14003KT 09/03 A2999 RMK A01 T00880025  RH  064%=      5-min Rain = 0
KCO1 130946Z 15004KT 09/02 A2999 RMK A01 T00860024  RH  065%=      5-min Rain = 0
KCO1 130947Z 14005KT 09/02 A2999 RMK A01 T00850023  RH  065%=      5-min Rain = 0
KCO1 130948Z 14006KT 08/02 A2999 RMK A01 T00840022  RH  065%=      5-min Rain = 0
KCO1 130949Z 16005KT 08/02 A2999 RMK A01 T00840021  RH  065%=      5-min Rain = 0
KCO1 130950Z 18003KT 08/02 A2999 RMK A01 T00830020  RH  065%=      5-min Rain = 0
KCO1 130951Z 20003KT 08/02 A2999 RMK A01 T00830020  RH  065%=      5-min Rain = 0
KCO1 130952Z 19002KT 08/02 A2999 RMK A01 T00830021  RH  065%=      5-min Rain = 0
KCO1 130953Z 15002KT 08/02 A2999 RMK A01 T00830021  RH  065%=      5-min Rain = 0
KCO1 130954Z 12003KT 08/02 A2999 RMK A01 T00830021  RH  065%=      5-min Rain = 0
KCO1 130955Z 12005KT 08/02 A2999 RMK A01 T00830020  RH  065%=      5-min Rain = 0
KCO1 130956Z 14003KT 08/02 A2999 RMK A01 T00820019  RH  064%=      5-min Rain = 0
KCO1 130957Z 16003KT 08/02 A2999 RMK A01 T00830019  RH  064%=      5-min Rain = 0
KCO1 130958Z 17003KT 08/02 A2999 RMK A01 T00820019  RH  065%=      5-min Rain = 0
KCO1 130959Z 14003KT 08/02 A2999 RMK A01 T00810019  RH  065%=      5-min Rain = 0
KCO1 131000Z 14003KT 08/02 A2999 RMK A01 T00810019  RH  065%=      5-min Rain = 0
KCO1 131001Z 16003KT 08/02 A2999 RMK A01 T00800019  RH  065%=      5-min Rain = 0
KCO1 131002Z 19002KT 08/02 A2999 RMK A01 T00800019  RH  065%=      5-min Rain = 0
KCO1 131003Z 19002KT 08/02 A2999 RMK A01 T00800020  RH  066%=      5-min Rain = 0
KCO1 131004Z 19002KT 08/02 A2999 RMK A01 T00790019  RH  066%=      5-min Rain = 0
KCO1 131005Z 19001KT 08/02 A2999 RMK A01 T00790019  RH  066%=      5-min Rain = 0
KCO1 131006Z 18001KT 08/02 A2999 RMK A01 T00790020  RH  066%=      5-min Rain = 0
KCO1 131007Z 17002KT 08/02 A2998 RMK A01 T00800020  RH  066%=      5-min Rain = 0
KCO1 131008Z 18002KT 08/02 A2998 RMK A01 T00810020  RH  065%=      5-min Rain = 0
KCO1 131009Z 18002KT 08/02 A2998 RMK A01 T00810020  RH  066%=      5-min Rain = 0
KCO1 131010Z 18003KT 08/02 A2998 RMK A01 T00800021  RH  066%=      5-min Rain = 0
KCO1 131011Z 18002KT 08/02 A2998 RMK A01 T00800021  RH  066%=      5-min Rain = 0
KCO1 131012Z 18002KT 08/02 A2998 RMK A01 T00790021  RH  067%=      5-min Rain = 0
KCO1 131013Z 18002KT 08/02 A2998 RMK A01 T00780021  RH  067%=      5-min Rain = 0
KCO1 131014Z 18002KT 08/02 A2998 RMK A01 T00780020  RH  067%=      5-min Rain = 0
KCO1 131015Z 18002KT 08/02 A2998 RMK A01 T00780021  RH  067%=      5-min Rain = 0
KCO1 131016Z 18001KT 08/02 A2998 RMK A01 T00780020  RH  067%=      5-min Rain = 0
KCO1 131017Z 18000KT 08/02 A2998 RMK A01 T00770019  RH  067%=      5-min Rain = 0
KCO1 131018Z 18000KT 08/02 A2998 RMK A01 T00770018  RH  066%=      5-min Rain = 0
KCO1 131019Z 00000KT 08/02 A2998 RMK A01 T00770018  RH  066%=      5-min Rain = 0
KCO1 131020Z 00000KT 08/02 A2998 RMK A01 T00770018  RH  066%=      5-min Rain = 0
KCO1 131021Z 00000KT 08/02 A2998 RMK A01 T00780018  RH  066%=      5-min Rain = 0
KCO1 131022Z 00000KT 08/02 A2998 RMK A01 T00780018  RH  066%=      5-min Rain = 0
KCO1 131023Z 32001KT 08/02 A2998 RMK A01 T00780017  RH  065%=      5-min Rain = 0
KCO1 131024Z 33002KT 08/02 A2998 RMK A01 T00780018  RH  066%=      5-min Rain = 0
KCO1 131025Z 33001KT 08/02 A2998 RMK A01 T00780018  RH  066%=      5-min Rain = 0
KCO1 131026Z 33001KT 08/02 A2998 RMK A01 T00780017  RH  065%=      5-min Rain = 0
KCO1 131027Z 32001KT 08/02 A2998 RMK A01 T00780017  RH  065%=      5-min Rain = 0
KCO1 131028Z 32000KT 08/02 A2998 RMK A01 T00780017  RH  065%=      5-min Rain = 0
KCO1 131029Z 32000KT 08/02 A2998 RMK A01 T00780016  RH  065%=      5-min Rain = 0
KCO1 131030Z 32001KT 08/02 A2998 RMK A01 T00780017  RH  065%=      5-min Rain = 0
KCO1 131031Z 32000KT 08/02 A2998 RMK A01 T00770017  RH  066%=      5-min Rain = 0
KCO1 131032Z 00000KT 08/02 A2998 RMK A01 T00770017  RH  066%=      5-min Rain = 0
KCO1 131033Z 00000KT 08/02 A2998 RMK A01 T00770018  RH  066%=      5-min Rain = 0
KCO1 131034Z 22001KT 08/02 A2998 RMK A01 T00760019  RH  067%=      5-min Rain = 0
KCO1 131035Z 19002KT 08/02 A2997 RMK A01 T00760019  RH  067%=      5-min Rain = 0
KCO1 131036Z 20003KT 08/02 A2997 RMK A01 T00750018  RH  067%=      5-min Rain = 0
KCO1 131037Z 19003KT 08/02 A2997 RMK A01 T00750019  RH  067%=      5-min Rain = 0
KCO1 131038Z 20004KT 08/02 A2998 RMK A01 T00750019  RH  068%=      5-min Rain = 0
KCO1 131039Z 20004KT 08/02 A2998 RMK A01 T00750019  RH  068%=      5-min Rain = 0
KCO1 131040Z 19004KT 08/02 A2998 RMK A01 T00750019  RH  068%=      5-min Rain = 0
KCO1 131041Z 19004KT 08/02 A2998 RMK A01 T00750019  RH  068%=      5-min Rain = 0
KCO1 131042Z 19004KT 08/02 A2998 RMK A01 T00750020  RH  068%=      5-min Rain = 0
KCO1 131043Z 19005KT 08/02 A2998 RMK A01 T00760022  RH  069%=      5-min Rain = 0
KCO1 131044Z 19004KT 08/02 A2998 RMK A01 T00780024  RH  069%=      5-min Rain = 0
KCO1 131045Z 19004KT 08/02 A2998 RMK A01 T00810023  RH  067%=      5-min Rain = 0
KCO1 131046Z 19004KT 08/02 A2998 RMK A01 T00810022  RH  066%=      5-min Rain = 0
KCO1 131047Z 20004KT 08/02 A2998 RMK A01 T00810022  RH  066%=      5-min Rain = 0
KCO1 131048Z 19004KT 08/02 A2998 RMK A01 T00820023  RH  067%=      5-min Rain = 0
KCO1 131049Z 19003KT 08/02 A2998 RMK A01 T00820024  RH  067%=      5-min Rain = 0
KCO1 131050Z 20003KT 08/02 A2998 RMK A01 T00820024  RH  067%=      5-min Rain = 0
KCO1 131051Z 21002KT 08/02 A2998 RMK A01 T00820024  RH  067%=      5-min Rain = 0
KCO1 131052Z 22002KT 08/03 A2998 RMK A01 T00820025  RH  067%=      5-min Rain = 0
KCO1 131053Z 21002KT 08/03 A2998 RMK A01 T00820025  RH  067%=      5-min Rain = 0
KCO1 131054Z 20003KT 08/03 A2998 RMK A01 T00830025  RH  067%=      5-min Rain = 0
KCO1 131055Z 20003KT 08/03 A2998 RMK A01 T00830025  RH  067%=      5-min Rain = 0
KCO1 131056Z 20003KT 08/03 A2998 RMK A01 T00830025  RH  067%=      5-min Rain = 0
KCO1 131057Z 21002KT 08/02 A2998 RMK A01 T00830024  RH  067%=      5-min Rain = 0
KCO1 131058Z 23002KT 08/02 A2998 RMK A01 T00830024  RH  066%=      5-min Rain = 0
KCO1 131059Z 24001KT 08/02 A2998 RMK A01 T00820024  RH  067%=      5-min Rain = 0
KCO1 131100Z 24001KT 08/03 A2998 RMK A01 T00820025  RH  067%=      5-min Rain = 0
KCO1 131101Z 24001KT 08/02 A2998 RMK A01 T00830024  RH  067%=      5-min Rain = 0
KCO1 131102Z 22002KT 08/02 A2998 RMK A01 T00830024  RH  067%=      5-min Rain = 0
KCO1 131103Z 22002KT 08/02 A2998 RMK A01 T00830024  RH  067%=      5-min Rain = 0
KCO1 131104Z 23002KT 08/03 A2999 RMK A01 T00830025  RH  067%=      5-min Rain = 0
KCO1 131105Z 22001KT 08/03 A2999 RMK A01 T00830025  RH  067%=      5-min Rain = 0
KCO1 131106Z 22001KT 08/03 A2999 RMK A01 T00830025  RH  067%=      5-min Rain = 0
KCO1 131107Z 22001KT 08/03 A2999 RMK A01 T00830025  RH  067%=      5-min Rain = 0
KCO1 131108Z 21001KT 08/03 A2999 RMK A01 T00820025  RH  067%=      5-min Rain = 0
KCO1 131109Z 21001KT 08/03 A2999 RMK A01 T00820025  RH  067%=      5-min Rain = 0
KCO1 131110Z 21001KT 08/03 A2999 RMK A01 T00820025  RH  068%=      5-min Rain = 0
KCO1 131111Z 21001KT 08/03 A2999 RMK A01 T00810025  RH  068%=      5-min Rain = 0
KCO1 131112Z 21001KT 08/03 A2999 RMK A01 T00810025  RH  068%=      5-min Rain = 0
KCO1 131113Z 22001KT 08/03 A2999 RMK A01 T00810025  RH  068%=      5-min Rain = 0
KCO1 131114Z 25001KT 08/02 A2999 RMK A01 T00800024  RH  067%=      5-min Rain = 0
KCO1 131115Z 31001KT 08/02 A2999 RMK A01 T00800022  RH  067%=      5-min Rain = 0
KCO1 131116Z 32001KT 08/02 A2999 RMK A01 T00790021  RH  067%=      5-min Rain = 0
KCO1 131117Z 30001KT 08/02 A2999 RMK A01 T00780020  RH  067%=      5-min Rain = 0
KCO1 131118Z 29001KT 08/02 A2999 RMK A01 T00770020  RH  067%=      5-min Rain = 0
KCO1 131119Z 28001KT 08/02 A2999 RMK A01 T00770020  RH  067%=      5-min Rain = 0
KCO1 131120Z 28001KT 08/02 A2999 RMK A01 T00760019  RH  067%=      5-min Rain = 0
KCO1 131121Z 28001KT 08/02 A2999 RMK A01 T00750019  RH  068%=      5-min Rain = 0
KCO1 131122Z 28002KT 08/02 A2999 RMK A01 T00750019  RH  068%=      5-min Rain = 0
KCO1 131123Z 28002KT 07/02 A2999 RMK A01 T00740019  RH  068%=      5-min Rain = 0
KCO1 131124Z 27002KT 07/02 A2999 RMK A01 T00740018  RH  068%=      5-min Rain = 0
KCO1 131125Z 27002KT 07/02 A2999 RMK A01 T00730017  RH  068%=      5-min Rain = 0
KCO1 131126Z 29002KT 07/02 A2999 RMK A01 T00730017  RH  068%=      5-min Rain = 0
KCO1 131127Z 29002KT 07/02 A2999 RMK A01 T00720017  RH  068%=      5-min Rain = 0
KCO1 131128Z 30002KT 07/02 A2999 RMK A01 T00720018  RH  068%=      5-min Rain = 0
KCO1 131129Z 29003KT 07/02 A2999 RMK A01 T00730019  RH  068%=      5-min Rain = 0
KCO1 131130Z 29003KT 07/02 A2999 RMK A01 T00730019  RH  068%=      5-min Rain = 0
KCO1 131131Z 29003KT 07/02 A2999 RMK A01 T00730018  RH  068%=      5-min Rain = 0
KCO1 131132Z 29003KT 07/02 A2999 RMK A01 T00710017  RH  068%=      5-min Rain = 0
KCO1 131133Z 31003KT 07/02 A2999 RMK A01 T00710017  RH  069%=      5-min Rain = 0
KCO1 131134Z 32002KT 07/02 A2999 RMK A01 T00700017  RH  069%=      5-min Rain = 0
KCO1 131135Z 30002KT 07/02 A2999 RMK A01 T00710017  RH  069%=      5-min Rain = 0
KCO1 131136Z 29002KT 07/02 A30 RMK A01 T00710017  RH  069%=      5-min Rain = 0
KCO1 131137Z 30002KT 07/02 A30 RMK A01 T00710017  RH  068%=      5-min Rain = 0
KCO1 131138Z 31002KT 07/02 A30 RMK A01 T00710017  RH  068%=      5-min Rain = 0
KCO1 131139Z 29001KT 07/02 A30 RMK A01 T00710017  RH  069%=      5-min Rain = 0
KCO1 131140Z 30001KT 07/02 A30 RMK A01 T00710017  RH  069%=      5-min Rain = 0
KCO1 131141Z 30000KT 07/02 A30 RMK A01 T00700018  RH  069%=      5-min Rain = 0
KCO1 131142Z 09003KT 07/02 A30 RMK A01 T00690017  RH  070%=      5-min Rain = 0
KCO1 131143Z 09003KT 07/02 A30 RMK A01 T00670017  RH  070%=      5-min Rain = 0
KCO1 131144Z 09001KT 07/02 A30 RMK A01 T00660018  RH  071%=      5-min Rain = 0
KCO1 131145Z 28001KT 07/02 A30 RMK A01 T00660018  RH  071%=      5-min Rain = 0
KCO1 131146Z 28000KT 07/02 A30 RMK A01 T00660018  RH  071%=      5-min Rain = 0
KCO1 131147Z 08002KT 07/02 A30 RMK A01 T00660018  RH  072%=      5-min Rain = 0
KCO1 131148Z 07002KT 07/02 A30 RMK A01 T00650018  RH  072%=      5-min Rain = 0
KCO1 131149Z 03001KT 07/02 A30 RMK A01 T00650018  RH  072%=      5-min Rain = 0
KCO1 131150Z 04001KT 07/02 A30 RMK A01 T00650018  RH  072%=      5-min Rain = 0
KCO1 131151Z 07003KT 07/02 A30 RMK A01 T00650018  RH  072%=      5-min Rain = 0
KCO1 131152Z 06004KT 07/02 A30 RMK A01 T00650018  RH  072%=      5-min Rain = 0
KCO1 131153Z 05002KT 07/02 A30 RMK A01 T00650018  RH  072%=      5-min Rain = 0
KCO1 131154Z 04002KT 07/02 A30 RMK A01 T00650018  RH  072%=      5-min Rain = 0
KCO1 131155Z 05003KT 07/02 A30 RMK A01 T00650018  RH  072%=      5-min Rain = 0
KCO1 131156Z 05002KT 07/02 A30 RMK A01 T00650018  RH  072%=      5-min Rain = 0
KCO1 131157Z 05002KT 07/02 A30 RMK A01 T00650018  RH  072%=      5-min Rain = 0
KCO1 131158Z 06004KT 07/02 A30 RMK A01 T00660018  RH  072%=      5-min Rain = 0
KCO1 131159Z 07004KT 07/02 A30 RMK A01 T00660018  RH  072%=      5-min Rain = 0
KCO1 131200Z 07003KT 07/02 A30 RMK A01 T00660018  RH  072%=      5-min Rain = 0
KCO1 131201Z 05002KT 07/02 A30 RMK A01 T00660018  RH  072%=      5-min Rain = 0
KCO1 131202Z 04002KT 07/02 A30 RMK A01 T00650018  RH  072%=      5-min Rain = 0
KCO1 131203Z 04001KT 07/02 A30 RMK A01 T00650019  RH  072%=      5-min Rain = 0
KCO1 131204Z 04001KT 07/02 A30 RMK A01 T00650018  RH  072%=      5-min Rain = 0
KCO1 131205Z 04000KT 06/02 A30 RMK A01 T00640018  RH  072%=      5-min Rain = 0
KCO1 131206Z 04001KT 06/02 A30 RMK A01 T00640018  RH  072%=      5-min Rain = 0
KCO1 131207Z 04000KT 06/02 A30 RMK A01 T00640017  RH  072%=      5-min Rain = 0
KCO1 131208Z 05001KT 06/02 A30 RMK A01 T00640017  RH  072%=      5-min Rain = 0
KCO1 131209Z 06002KT 06/02 A30 RMK A01 T00640017  RH  072%=      5-min Rain = 0
KCO1 131210Z 06002KT 06/02 A30 RMK A01 T00640017  RH  072%=      5-min Rain = 0
KCO1 131211Z 06001KT 06/02 A30 RMK A01 T00640017  RH  072%=      5-min Rain = 0
KCO1 131212Z 06001KT 07/02 A30 RMK A01 T00650017  RH  072%=      5-min Rain = 0
KCO1 131213Z 06001KT 07/02 A30 RMK A01 T00650017  RH  071%=      5-min Rain = 0
KCO1 131214Z 06001KT 07/02 A30 RMK A01 T00650017  RH  071%=      5-min Rain = 0
KCO1 131215Z 06000KT 07/02 A30 RMK A01 T00650017  RH  071%=      5-min Rain = 0
KCO1 131216Z 09001KT 07/02 A30 RMK A01 T00650017  RH  071%=      5-min Rain = 0
KCO1 131217Z 10001KT 07/02 A30 RMK A01 T00650016  RH  071%=      5-min Rain = 0
KCO1 131218Z 12001KT 07/02 A30 RMK A01 T00650017  RH  071%=      5-min Rain = 0
KCO1 131219Z 14002KT 07/02 A30 RMK A01 T00660017  RH  071%=      5-min Rain = 0
KCO1 131220Z 13002KT 07/02 A30 RMK A01 T00660017  RH  071%=      5-min Rain = 0
KCO1 131221Z 12003KT 07/02 A30 RMK A01 T00650017  RH  071%=      5-min Rain = 0
KCO1 131222Z 12003KT 06/02 A30 RMK A01 T00640017  RH  072%=      5-min Rain = 0
KCO1 131223Z 12002KT 06/02 A30 RMK A01 T00630017  RH  072%=      5-min Rain = 0
KCO1 131224Z 13002KT 06/02 A30 RMK A01 T00630017  RH  072%=      5-min Rain = 0
KCO1 131225Z 13000KT 06/02 A30 RMK A01 T00630017  RH  072%=      5-min Rain = 0
KCO1 131226Z 13000KT 06/02 A30 RMK A01 T00630017  RH  072%=      5-min Rain = 0
KCO1 131227Z 13001KT 06/02 A30 RMK A01 T00630017  RH  072%=      5-min Rain = 0
KCO1 131228Z 13001KT 06/02 A30 RMK A01 T00640018  RH  072%=      5-min Rain = 0
KCO1 131229Z 13001KT 07/02 A30 RMK A01 T00660020  RH  072%=      5-min Rain = 0
KCO1 131230Z 13001KT 07/02 A30 RMK A01 T00680020  RH  072%=      5-min Rain = 0
KCO1 131231Z 14002KT 07/02 A30 RMK A01 T00680020  RH  072%=      5-min Rain = 0
KCO1 131232Z 14002KT 07/02 A30 RMK A01 T00690020  RH  071%=      5-min Rain = 0
KCO1 131233Z 14003KT 07/02 A30 RMK A01 T00690019  RH  071%=      5-min Rain = 0
KCO1 131234Z 15002KT 07/02 A30 RMK A01 T00690019  RH  070%=      5-min Rain = 0
KCO1 131235Z 16002KT 07/02 A30 RMK A01 T00700020  RH  070%=      5-min Rain = 0
KCO1 131236Z 17002KT 07/02 A30 RMK A01 T00710020  RH  070%=      5-min Rain = 0
KCO1 131237Z 17002KT 07/02 A30 RMK A01 T00710021  RH  070%=      5-min Rain = 0
KCO1 131238Z 18001KT 07/02 A30 RMK A01 T00720021  RH  070%=      5-min Rain = 0
KCO1 131239Z 22001KT 07/02 A30 RMK A01 T00730022  RH  070%=      5-min Rain = 0
KCO1 131240Z 22001KT 07/02 A2999 RMK A01 T00740022  RH  069%=      5-min Rain = 0
KCO1 131241Z 22001KT 07/02 A2999 RMK A01 T00740021  RH  069%=      5-min Rain = 0
KCO1 131242Z 22001KT 07/02 A2999 RMK A01 T00740021  RH  069%=      5-min Rain = 0
KCO1 131243Z 22001KT 07/02 A2999 RMK A01 T00730020  RH  069%=      5-min Rain = 0
KCO1 131244Z 22001KT 07/02 A2999 RMK A01 T00720020  RH  070%=      5-min Rain = 0
KCO1 131245Z 22001KT 07/02 A2999 RMK A01 T00710020  RH  070%=      5-min Rain = 0
KCO1 131246Z 22000KT 07/02 A2999 RMK A01 T00700020  RH  070%=      5-min Rain = 0
KCO1 131247Z 22000KT 07/02 A2999 RMK A01 T00700020  RH  071%=      5-min Rain = 0
KCO1 131248Z 22000KT 07/02 A2999 RMK A01 T00690020  RH  071%=      5-min Rain = 0
KCO1 131249Z 00000KT 07/02 A30 RMK A01 T00690020  RH  071%=      5-min Rain = 0
KCO1 131250Z 22000KT 07/02 A30 RMK A01 T00690021  RH  071%=      5-min Rain = 0
KCO1 131251Z 00000KT 07/02 A30 RMK A01 T00690021  RH  071%=      5-min Rain = 0
KCO1 131252Z 00000KT 07/02 A30 RMK A01 T00700021  RH  071%=      5-min Rain = 0
KCO1 131253Z 00000KT 07/02 A30 RMK A01 T00710022  RH  071%=      5-min Rain = 0
KCO1 131254Z 00000KT 07/02 A30 RMK A01 T00720022  RH  070%=      5-min Rain = 0
KCO1 131255Z 00000KT 07/02 A30 RMK A01 T00730022  RH  070%=      5-min Rain = 0
KCO1 131256Z 00000KT 07/02 A30 RMK A01 T00730022  RH  070%=      5-min Rain = 0
KCO1 131257Z 00000KT 07/02 A30 RMK A01 T00730022  RH  070%=      5-min Rain = 0
KCO1 131258Z 00000KT 07/02 A30 RMK A01 T00730022  RH  070%=      5-min Rain = 0
KCO1 131259Z 00000KT 07/02 A30 RMK A01 T00730022  RH  070%=      5-min Rain = 0
KCO1 131300Z 22000KT 07/02 A30 RMK A01 T00730022  RH  070%=      5-min Rain = 0
KCO1 131301Z 22000KT 07/02 A30 RMK A01 T00730022  RH  070%=      5-min Rain = 0
KCO1 131302Z 22001KT 07/02 A30 RMK A01 T00730022  RH  070%=      5-min Rain = 0
KCO1 131303Z 22000KT 07/02 A30 RMK A01 T00730022  RH  070%=      5-min Rain = 0
KCO1 131304Z 22000KT 07/02 A30 RMK A01 T00730022  RH  070%=      5-min Rain = 0
KCO1 131305Z 22001KT 07/02 A30 RMK A01 T00730022  RH  070%=      5-min Rain = 0
KCO1 131306Z 22001KT 07/02 A30 RMK A01 T00730021  RH  070%=      5-min Rain = 0
KCO1 131307Z 22001KT 07/02 A3001 RMK A01 T00730021  RH  070%=      5-min Rain = 0
KCO1 131308Z 15001KT 07/02 A3001 RMK A01 T00730022  RH  070%=      5-min Rain = 0
KCO1 131309Z 13002KT 07/02 A3001 RMK A01 T00730022  RH  070%=      5-min Rain = 0
KCO1 131310Z 13002KT 07/02 A3001 RMK A01 T00730022  RH  070%=      5-min Rain = 0
KCO1 131311Z 14002KT 07/02 A3001 RMK A01 T00730022  RH  070%=      5-min Rain = 0
KCO1 131312Z 15002KT 07/02 A3001 RMK A01 T00710022  RH  071%=      5-min Rain = 0
KCO1 131313Z 16003KT 07/02 A3001 RMK A01 T00700022  RH  072%=      5-min Rain = 0
KCO1 131314Z 16004KT 07/02 A3001 RMK A01 T00690023  RH  072%=      5-min Rain = 0
KCO1 131315Z 16004KT 07/02 A3001 RMK A01 T00690024  RH  073%=      5-min Rain = 0
KCO1 131316Z 16005KT 07/03 A3001 RMK A01 T00690025  RH  074%=      5-min Rain = 0
KCO1 131317Z 16005KT 07/03 A3001 RMK A01 T00690027  RH  074%=      5-min Rain = 0
KCO1 131318Z 16004KT 07/03 A3001 RMK A01 T00700027  RH  074%=      5-min Rain = 0
KCO1 131319Z 16003KT 07/03 A3001 RMK A01 T00710028  RH  074%=      5-min Rain = 0
KCO1 131320Z 16002KT 07/03 A3001 RMK A01 T00720029  RH  074%=      5-min Rain = 0
KCO1 131321Z 15002KT 07/03 A3001 RMK A01 T00730029  RH  074%=      5-min Rain = 0
KCO1 131322Z 16002KT 07/03 A3001 RMK A01 T00740029  RH  073%=      5-min Rain = 0
KCO1 131323Z 16001KT 08/03 A3001 RMK A01 T00750030  RH  073%=      5-min Rain = 0
KCO1 131324Z 17001KT 08/03 A3001 RMK A01 T00760030  RH  073%=      5-min Rain = 0
KCO1 131325Z 18002KT 08/03 A3001 RMK A01 T00770030  RH  072%=      5-min Rain = 0
KCO1 131326Z 18001KT 08/03 A3001 RMK A01 T00780031  RH  072%=      5-min Rain = 0
KCO1 131327Z 18001KT 08/03 A3001 RMK A01 T00790032  RH  072%=      5-min Rain = 0
KCO1 131328Z 18001KT 08/03 A3001 RMK A01 T00810033  RH  072%=      5-min Rain = 0
KCO1 131329Z 19001KT 08/03 A3001 RMK A01 T00830033  RH  071%=      5-min Rain = 0
KCO1 131330Z 19001KT 08/03 A3001 RMK A01 T00840034  RH  071%=      5-min Rain = 0
KCO1 131331Z 19002KT 09/04 A3001 RMK A01 T00850035  RH  071%=      5-min Rain = 0
KCO1 131332Z 19002KT 09/04 A3001 RMK A01 T00870036  RH  070%=      5-min Rain = 0
KCO1 131333Z 19002KT 09/04 A3001 RMK A01 T00880036  RH  070%=      5-min Rain = 0
KCO1 131334Z 19002KT 09/04 A3001 RMK A01 T00900035  RH  068%=      5-min Rain = 0
KCO1 131335Z 19002KT 09/04 A3002 RMK A01 T00910035  RH  068%=      5-min Rain = 0
KCO1 131336Z 18003KT 09/04 A3002 RMK A01 T00920036  RH  068%=      5-min Rain = 0
KCO1 131337Z 18003KT 09/04 A3002 RMK A01 T00940037  RH  068%=      5-min Rain = 0
KCO1 131338Z 19003KT 10/04 A3002 RMK A01 T00960038  RH  067%=      5-min Rain = 0
KCO1 131339Z 22002KT 10/04 A3002 RMK A01 T00970037  RH  066%=      5-min Rain = 0
KCO1 131340Z 23002KT 10/04 A3002 RMK A01 T00980037  RH  066%=      5-min Rain = 0
KCO1 131341Z 25002KT 10/03 A3002 RMK A01 T01000034  RH  064%=      5-min Rain = 0
KCO1 131342Z 26002KT 10/03 A3002 RMK A01 T01010034  RH  063%=      5-min Rain = 0
KCO1 131343Z 26002KT 10/03 A3002 RMK A01 T01020033  RH  062%=      5-min Rain = 0
KCO1 131344Z 25002KT 10/03 A3002 RMK A01 T01030033  RH  062%=      5-min Rain = 0
KCO1 131345Z 24001KT 10/03 A3002 RMK A01 T01040033  RH  062%=      5-min Rain = 0
KCO1 131346Z 22002KT 11/03 A3002 RMK A01 T01050033  RH  061%=      5-min Rain = 0
KCO1 131347Z 23002KT 11/03 A3002 RMK A01 T01060034  RH  061%=      5-min Rain = 0
KCO1 131348Z 23002KT 11/03 A3002 RMK A01 T01080034  RH  060%=      5-min Rain = 0
KCO1 131349Z 23001KT 11/03 A3002 RMK A01 T01090034  RH  060%=      5-min Rain = 0
KCO1 131350Z 20001KT 11/03 A3002 RMK A01 T01100034  RH  059%=      5-min Rain = 0
KCO1 131351Z 21001KT 11/03 A3002 RMK A01 T01110032  RH  058%=      5-min Rain = 0
KCO1 131352Z 23001KT 11/03 A3002 RMK A01 T01110030  RH  057%=      5-min Rain = 0
KCO1 131353Z 24002KT 11/03 A3002 RMK A01 T01120029  RH  057%=      5-min Rain = 0
KCO1 131354Z 24002KT 11/03 A3002 RMK A01 T01130029  RH  056%=      5-min Rain = 0
KCO1 131355Z 25002KT 11/03 A3002 RMK A01 T01130028  RH  056%=      5-min Rain = 0
KCO1 131356Z 26002KT 12/03 A3002 RMK A01 T01150027  RH  055%=      5-min Rain = 0
KCO1 131357Z 27002KT 12/02 A3002 RMK A01 T01150023  RH  053%=      5-min Rain = 0
KCO1 131358Z 24002KT 12/03 A3002 RMK A01 T01150025  RH  054%=      5-min Rain = 0
KCO1 131359Z 24002KT 12/02 A3002 RMK A01 T01160024  RH  053%=      5-min Rain = 0
KCO1 131400Z 23002KT 12/02 A3002 RMK A01 T01170024  RH  053%=      5-min Rain = 0
KCO1 131401Z 24002KT 12/02 A3002 RMK A01 T01180023  RH  052%=      5-min Rain = 0
KCO1 131402Z 24002KT 12/02 A3002 RMK A01 T01190022  RH  051%=      5-min Rain = 0
KCO1 131403Z 24002KT 12/02 A3002 RMK A01 T01200023  RH  051%=      5-min Rain = 0
KCO1 131404Z 26001KT 12/02 A3002 RMK A01 T01210024  RH  052%=      5-min Rain = 0
KCO1 131405Z 25002KT 12/03 A3002 RMK A01 T01220025  RH  051%=      5-min Rain = 0
KCO1 131406Z 25002KT 12/02 A3002 RMK A01 T01230024  RH  051%=      5-min Rain = 0
KCO1 131407Z 26002KT 12/02 A3002 RMK A01 T01240022  RH  050%=      5-min Rain = 0
KCO1 131408Z 29002KT 12/02 A3002 RMK A01 T01240024  RH  050%=      5-min Rain = 0
KCO1 131409Z 30002KT 13/03 A3003 RMK A01 T01250026  RH  051%=      5-min Rain = 0
KCO1 131410Z 30001KT 13/02 A3003 RMK A01 T01250022  RH  049%=      5-min Rain = 0
KCO1 131411Z 31000KT 13/02 A3003 RMK A01 T01260023  RH  049%=      5-min Rain = 0
KCO1 131412Z 30000KT 13/02 A3003 RMK A01 T01280024  RH  049%=      5-min Rain = 0
KCO1 131413Z 00000KT 13/02 A3003 RMK A01 T01300024  RH  049%=      5-min Rain = 0
KCO1 131414Z 00000KT 13/03 A3003 RMK A01 T01310025  RH  049%=      5-min Rain = 0
KCO1 131415Z 00000KT 13/02 A3003 RMK A01 T01320023  RH  048%=      5-min Rain = 0
KCO1 131416Z 29000KT 13/02 A3003 RMK A01 T01330020  RH  046%=      5-min Rain = 0
KCO1 131417Z 30000KT 13/02 A3003 RMK A01 T01330020  RH  046%=      5-min Rain = 0
KCO1 131418Z 31001KT 13/02 A3003 RMK A01 T01340020  RH  046%=      5-min Rain = 0
KCO1 131419Z 29001KT 13/02 A3003 RMK A01 T01340022  RH  047%=      5-min Rain = 0
KCO1 131420Z 27001KT 14/02 A3003 RMK A01 T01350024  RH  047%=      5-min Rain = 0
KCO1 131421Z 26001KT 14/02 A3003 RMK A01 T01350024  RH  047%=      5-min Rain = 0
KCO1 131422Z 25001KT 14/02 A3003 RMK A01 T01360023  RH  046%=      5-min Rain = 0
KCO1 131423Z 26002KT 14/02 A3003 RMK A01 T01360024  RH  047%=      5-min Rain = 0
KCO1 131424Z 26001KT 14/03 A3003 RMK A01 T01370026  RH  047%=      5-min Rain = 0
KCO1 131425Z 27001KT 14/03 A3003 RMK A01 T01380026  RH  047%=      5-min Rain = 0
KCO1 131426Z 29001KT 14/03 A3003 RMK A01 T01380025  RH  046%=      5-min Rain = 0
KCO1 131427Z 29001KT 14/03 A3003 RMK A01 T01390026  RH  046%=      5-min Rain = 0
KCO1 131428Z 29001KT 14/03 A3003 RMK A01 T01390025  RH  046%=      5-min Rain = 0
KCO1 131429Z 28001KT 14/03 A3003 RMK A01 T01390027  RH  047%=      5-min Rain = 0
KCO1 131430Z 22000KT 14/03 A3003 RMK A01 T01410027  RH  046%=      5-min Rain = 0
KCO1 131431Z 24002KT 14/03 A3003 RMK A01 T01420027  RH  046%=      5-min Rain = 0
KCO1 131432Z 26002KT 14/03 A3003 RMK A01 T01440025  RH  045%=      5-min Rain = 0
KCO1 131433Z 27002KT 14/02 A3003 RMK A01 T01440024  RH  044%=      5-min Rain = 0
KCO1 131434Z 26002KT 14/03 A3003 RMK A01 T01440026  RH  045%=      5-min Rain = 0
KCO1 131435Z 26001KT 15/03 A3003 RMK A01 T01450027  RH  045%=      5-min Rain = 0
KCO1 131436Z 26002KT 15/03 A3003 RMK A01 T01460025  RH  044%=      5-min Rain = 0
KCO1 131437Z 25001KT 15/02 A3003 RMK A01 T01460024  RH  044%=      5-min Rain = 0
KCO1 131438Z 25001KT 15/03 A3003 RMK A01 T01460026  RH  044%=      5-min Rain = 0
KCO1 131439Z 25001KT 15/03 A3003 RMK A01 T01470025  RH  044%=      5-min Rain = 0
KCO1 131440Z 21001KT 15/03 A3003 RMK A01 T01470026  RH  044%=      5-min Rain = 0
KCO1 131441Z 18001KT 15/03 A3003 RMK A01 T01490027  RH  044%=      5-min Rain = 0
KCO1 131442Z 19002KT 15/03 A3004 RMK A01 T01500028  RH  044%=      5-min Rain = 0
KCO1 131443Z 17003KT 15/03 A3004 RMK A01 T01520030  RH  044%=      5-min Rain = 0
KCO1 131444Z 18002KT 15/03 A3003 RMK A01 T01540031  RH  044%=      5-min Rain = 0
KCO1 131445Z 19002KT 15/03 A3004 RMK A01 T01540031  RH  043%=      5-min Rain = 0
KCO1 131446Z 21001KT 16/03 A3004 RMK A01 T01550032  RH  043%=      5-min Rain = 0
KCO1 131447Z 19001KT 16/03 A3004 RMK A01 T01560031  RH  043%=      5-min Rain = 0
KCO1 131448Z 16002KT 16/03 A3003 RMK A01 T01570031  RH  043%=      5-min Rain = 0
KCO1 131449Z 16003KT 16/03 A3003 RMK A01 T01580029  RH  042%=      5-min Rain = 0
KCO1 131450Z 18003KT 16/03 A3003 RMK A01 T01600029  RH  042%=      5-min Rain = 0
KCO1 131451Z 17003KT 16/03 A3003 RMK A01 T01610029  RH  041%=      5-min Rain = 0
KCO1 131452Z 17003KT 16/03 A3003 RMK A01 T01620031  RH  041%=      5-min Rain = 0
KCO1 131453Z 15002KT 16/03 A3003 RMK A01 T01640033  RH  041%=      5-min Rain = 0
KCO1 131454Z 15002KT 17/03 A3003 RMK A01 T01660033  RH  041%=      5-min Rain = 0
KCO1 131455Z 16002KT 17/03 A3003 RMK A01 T01670031  RH  040%=      5-min Rain = 0
KCO1 131456Z 16003KT 17/03 A3003 RMK A01 T01690031  RH  040%=      5-min Rain = 0
KCO1 131457Z 16003KT 17/03 A3003 RMK A01 T01690028  RH  039%=      5-min Rain = 0
KCO1 131458Z 17003KT 17/03 A3004 RMK A01 T01690029  RH  039%=      5-min Rain = 0
KCO1 131459Z 18002KT 17/03 A3004 RMK A01 T01690031  RH  040%=      5-min Rain = 0
KCO1 131500Z 17003KT 17/03 A3004 RMK A01 T01690031  RH  040%=      5-min Rain = 0
KCO1 131501Z 16003KT 17/03 A3004 RMK A01 T01690032  RH  040%=      5-min Rain = 0
KCO1 131502Z 15002KT 17/03 A3004 RMK A01 T01690030  RH  039%=      5-min Rain = 0
KCO1 131503Z 16002KT 17/03 A3004 RMK A01 T01700031  RH  039%=      5-min Rain = 0
KCO1 131504Z 21002KT 17/03 A3004 RMK A01 T01710033  RH  040%=      5-min Rain = 0
KCO1 131505Z 21002KT 17/04 A3004 RMK A01 T01720035  RH  040%=      5-min Rain = 0
KCO1 131506Z 23002KT 17/04 A3004 RMK A01 T01730035  RH  040%=      5-min Rain = 0
KCO1 131507Z 22001KT 17/04 A3004 RMK A01 T01730036  RH  040%=      5-min Rain = 0
KCO1 131508Z 21000KT 17/03 A3004 RMK A01 T01740034  RH  039%=      5-min Rain = 0
KCO1 131509Z 20002KT 18/03 A3004 RMK A01 T01770034  RH  039%=      5-min Rain = 0
KCO1 131510Z 21001KT 18/04 A3004 RMK A01 T01780036  RH  039%=      5-min Rain = 0
KCO1 131511Z 21002KT 18/03 A3004 RMK A01 T01790034  RH  038%=      5-min Rain = 0
KCO1 131512Z 21001KT 18/03 A3004 RMK A01 T01790034  RH  038%=      5-min Rain = 0
KCO1 131513Z 19001KT 18/03 A3004 RMK A01 T01790034  RH  038%=      5-min Rain = 0
KCO1 131514Z 20001KT 18/04 A3004 RMK A01 T01790035  RH  038%=      5-min Rain = 0
KCO1 131515Z 21000KT 18/04 A3004 RMK A01 T01800035  RH  038%=      5-min Rain = 0
KCO1 131516Z 00000KT 18/04 A3004 RMK A01 T01810037  RH  038%=      5-min Rain = 0
KCO1 131517Z 00000KT 18/04 A3004 RMK A01 T01820038  RH  038%=      5-min Rain = 0
KCO1 131518Z 00000KT 18/04 A3004 RMK A01 T01840037  RH  038%=      5-min Rain = 0
KCO1 131519Z 00000KT 19/04 A3004 RMK A01 T01870038  RH  037%=      5-min Rain = 0
KCO1 131520Z 32001KT 19/04 A3004 RMK A01 T01900039  RH  037%=      5-min Rain = 0
KCO1 131521Z 33001KT 19/04 A3004 RMK A01 T01900038  RH  036%=      5-min Rain = 0
KCO1 131522Z 32001KT 19/04 A3004 RMK A01 T01900039  RH  037%=      5-min Rain = 0
KCO1 131523Z 32001KT 19/04 A3004 RMK A01 T01900037  RH  036%=      5-min Rain = 0
KCO1 131524Z 34001KT 19/04 A3004 RMK A01 T01900037  RH  036%=      5-min Rain = 0
KCO1 131525Z 33001KT 19/04 A3004 RMK A01 T01890036  RH  036%=      5-min Rain = 0
KCO1 131526Z 34001KT 19/04 A3004 RMK A01 T01880036  RH  036%=      5-min Rain = 0
KCO1 131527Z 03001KT 19/04 A3004 RMK A01 T01880036  RH  036%=      5-min Rain = 0
KCO1 131528Z 04001KT 19/04 A3004 RMK A01 T01880037  RH  037%=      5-min Rain = 0
KCO1 131529Z 32002KT 19/04 A3004 RMK A01 T01900038  RH  037%=      5-min Rain = 0
KCO1 131530Z 29001KT 19/04 A3004 RMK A01 T01910037  RH  036%=      5-min Rain = 0
KCO1 131531Z 27001KT 19/04 A3004 RMK A01 T01900037  RH  036%=      5-min Rain = 0
KCO1 131532Z 28000KT 19/04 A3004 RMK A01 T01900037  RH  036%=      5-min Rain = 0
KCO1 131533Z 00000KT 19/04 A3004 RMK A01 T01910038  RH  036%=      5-min Rain = 0
KCO1 131534Z 00000KT 19/04 A3004 RMK A01 T01920036  RH  036%=      5-min Rain = 0
KCO1 131535Z 00000KT 19/04 A3004 RMK A01 T01940036  RH  035%=      5-min Rain = 0
KCO1 131536Z 29000KT 20/04 A3004 RMK A01 T01950037  RH  035%=      5-min Rain = 0
KCO1 131537Z 28000KT 20/04 A3004 RMK A01 T01950035  RH  035%=      5-min Rain = 0
KCO1 131538Z 26000KT 20/04 A3004 RMK A01 T01950039  RH  036%=      5-min Rain = 0
KCO1 131539Z 32001KT 20/04 A3004 RMK A01 T01950037  RH  035%=      5-min Rain = 0
KCO1 131540Z 33001KT 19/04 A3004 RMK A01 T01940037  RH  035%=      5-min Rain = 0
KCO1 131541Z 34001KT 19/04 A3004 RMK A01 T01940037  RH  035%=      5-min Rain = 0
KCO1 131542Z 33001KT 19/04 A3004 RMK A01 T01930036  RH  035%=      5-min Rain = 0
KCO1 131543Z 31001KT 19/04 A3004 RMK A01 T01930037  RH  036%=      5-min Rain = 0
KCO1 131544Z 30001KT 19/04 A3004 RMK A01 T01940037  RH  036%=      5-min Rain = 0
KCO1 131545Z 33001KT 20/04 A3004 RMK A01 T01950041  RH  036%=      5-min Rain = 0
KCO1 131546Z 34001KT 20/04 A3004 RMK A01 T01960039  RH  035%=      5-min Rain = 0
KCO1 131547Z 33001KT 20/04 A3004 RMK A01 T01960037  RH  035%=      5-min Rain = 0
KCO1 131548Z 32001KT 20/04 A3004 RMK A01 T01960038  RH  035%=      5-min Rain = 0
KCO1 131549Z 32001KT 20/04 A3004 RMK A01 T01970038  RH  035%=      5-min Rain = 0
KCO1 131550Z 31001KT 20/04 A3004 RMK A01 T01970038  RH  035%=      5-min Rain = 0
KCO1 131551Z 31000KT 20/04 A3004 RMK A01 T01980041  RH  035%=      5-min Rain = 0
KCO1 131552Z 00000KT 20/04 A3004 RMK A01 T01990039  RH  035%=      5-min Rain = 0
KCO1 131553Z 25000KT 20/04 A3004 RMK A01 T02000039  RH  035%=      5-min Rain = 0
KCO1 131554Z 27001KT 20/04 A3004 RMK A01 T02000041  RH  035%=      5-min Rain = 0
KCO1 131555Z 27000KT 20/04 A3004 RMK A01 T02010044  RH  035%=      5-min Rain = 0
KCO1 131556Z 26000KT 20/05 A3004 RMK A01 T02030046  RH  036%=      5-min Rain = 0
KCO1 131557Z 31000KT 20/04 A3004 RMK A01 T02040044  RH  035%=      5-min Rain = 0
KCO1 131558Z 04001KT 21/05 A3005 RMK A01 T02060045  RH  035%=      5-min Rain = 0
KCO1 131559Z 05003KT 21/04 A3005 RMK A01 T02060044  RH  034%=      5-min Rain = 0
KCO1 131600Z 07002KT 21/04 A3005 RMK A01 T02070044  RH  034%=      5-min Rain = 0
KCO1 131601Z 08001KT 21/04 A3005 RMK A01 T02070041  RH  034%=      5-min Rain = 0
KCO1 131602Z 09002KT 21/05 A3005 RMK A01 T02080045  RH  034%=      5-min Rain = 0
KCO1 131603Z 10002KT 21/04 A3005 RMK A01 T02090044  RH  034%=      5-min Rain = 0
KCO1 131604Z 11002KT 21/04 A3005 RMK A01 T02100044  RH  034%=      5-min Rain = 0
KCO1 131605Z 17001KT 21/04 A3005 RMK A01 T02100043  RH  033%=      5-min Rain = 0
KCO1 131606Z 17000KT 21/04 A3005 RMK A01 T02120044  RH  033%=      5-min Rain = 0
KCO1 131607Z 15001KT 21/04 A3005 RMK A01 T02140043  RH  033%=      5-min Rain = 0
KCO1 131608Z 14001KT 22/05 A3004 RMK A01 T02150045  RH  033%=      5-min Rain = 0
KCO1 131609Z 17001KT 22/05 A3004 RMK A01 T02150045  RH  033%=      5-min Rain = 0
KCO1 131610Z 20001KT 22/04 A3004 RMK A01 T02160044  RH  033%=      5-min Rain = 0
KCO1 131611Z 00000KT 22/04 A3004 RMK A01 T02170044  RH  032%=      5-min Rain = 0
KCO1 131612Z 06000KT 22/05 A3004 RMK A01 T02190045  RH  032%=      5-min Rain = 0
KCO1 131613Z 06002KT 22/05 A3004 RMK A01 T02220047  RH  032%=      5-min Rain = 0
KCO1 131614Z 05002KT 22/05 A3004 RMK A01 T02230047  RH  032%=      5-min Rain = 0
KCO1 131615Z 08001KT 22/05 A3004 RMK A01 T02230047  RH  032%=      5-min Rain = 0
KCO1 131616Z 07001KT 22/05 A3004 RMK A01 T02240045  RH  031%=      5-min Rain = 0
KCO1 131617Z 34002KT 22/04 A3004 RMK A01 T02240044  RH  031%=      5-min Rain = 0
KCO1 131618Z 34002KT 22/04 A3004 RMK A01 T02230041  RH  030%=      5-min Rain = 0
KCO1 131619Z 34002KT 22/04 A3004 RMK A01 T02200040  RH  031%=      5-min Rain = 0
KCO1 131620Z 32004KT 22/04 A3004 RMK A01 T02180041  RH  031%=      5-min Rain = 0
KCO1 131621Z 31002KT 22/04 A3004 RMK A01 T02160042  RH  032%=      5-min Rain = 0
KCO1 131622Z 01001KT 21/04 A3004 RMK A01 T02140041  RH  032%=      5-min Rain = 0
KCO1 131623Z 33001KT 21/05 A3004 RMK A01 T02140045  RH  033%=      5-min Rain = 0
KCO1 131624Z 32002KT 22/05 A3004 RMK A01 T02160045  RH  033%=      5-min Rain = 0
KCO1 131625Z 32004KT 22/05 A3004 RMK A01 T02180046  RH  032%=      5-min Rain = 0
KCO1 131626Z 32003KT 22/05 A3004 RMK A01 T02180046  RH  033%=      5-min Rain = 0
KCO1 131627Z 32003KT 22/05 A3004 RMK A01 T02180046  RH  032%=      5-min Rain = 0
KCO1 131628Z 31002KT 22/04 A3004 RMK A01 T02180044  RH  032%=      5-min Rain = 0
KCO1 131629Z 32003KT 22/05 A3004 RMK A01 T02180045  RH  032%=      5-min Rain = 0
KCO1 131630Z 30005KT 22/05 A3004 RMK A01 T02170045  RH  032%=      5-min Rain = 0
KCO1 131631Z 28003KT 22/04 A3004 RMK A01 T02160044  RH  032%=      5-min Rain = 0
KCO1 131632Z 31003KT 22/05 A3004 RMK A01 T02160051  RH  034%=      5-min Rain = 0
KCO1 131633Z 29003KT 22/05 A3004 RMK A01 T02190050  RH  033%=      5-min Rain = 0
KCO1 131634Z 28002KT 22/05 A3004 RMK A01 T02190049  RH  033%=      5-min Rain = 0
KCO1 131635Z 30003KT 22/05 A3004 RMK A01 T02200048  RH  033%=      5-min Rain = 0
KCO1 131636Z 32003KT 22/05 A3004 RMK A01 T02190045  RH  032%=      5-min Rain = 0
KCO1 131637Z 35002KT 22/05 A3004 RMK A01 T02190045  RH  032%=      5-min Rain = 0
KCO1 131638Z 32001KT 22/04 A3004 RMK A01 T02190044  RH  032%=      5-min Rain = 0
KCO1 131639Z 31001KT 22/05 A3004 RMK A01 T02200045  RH  032%=      5-min Rain = 0
KCO1 131640Z 31002KT 22/05 A3004 RMK A01 T02220049  RH  032%=      5-min Rain = 0
KCO1 131641Z 34003KT 22/05 A3004 RMK A01 T02230047  RH  032%=      5-min Rain = 0
KCO1 131642Z 35002KT 22/04 A3004 RMK A01 T02220044  RH  031%=      5-min Rain = 0
KCO1 131643Z 33003KT 22/04 A3004 RMK A01 T02200044  RH  032%=      5-min Rain = 0
KCO1 131644Z 33004KT 22/04 A3004 RMK A01 T02200044  RH  032%=      5-min Rain = 0
KCO1 131645Z 32004KT 22/04 A3004 RMK A01 T02200043  RH  031%=      5-min Rain = 0
KCO1 131646Z 30003KT 22/04 A3004 RMK A01 T02200044  RH  032%=      5-min Rain = 0
KCO1 131647Z 30001KT 22/04 A3004 RMK A01 T02200043  RH  032%=      5-min Rain = 0
KCO1 131648Z 29001KT 22/05 A3004 RMK A01 T02190046  RH  032%=      5-min Rain = 0
KCO1 131649Z 25001KT 22/05 A3004 RMK A01 T02210047  RH  032%=      5-min Rain = 0
KCO1 131650Z 27001KT 22/05 A3004 RMK A01 T02220045  RH  031%=      5-min Rain = 0
KCO1 131651Z 34001KT 22/05 A3004 RMK A01 T02240047  RH  032%=      5-min Rain = 0
KCO1 131652Z 35001KT 23/05 A3004 RMK A01 T02260048  RH  031%=      5-min Rain = 0
KCO1 131653Z 14000KT 23/05 A3004 RMK A01 T02270050  RH  032%=      5-min Rain = 0
KCO1 131654Z 09001KT 23/05 A3004 RMK A01 T02300052  RH  032%=      5-min Rain = 0
KCO1 131655Z 13002KT 23/05 A3004 RMK A01 T02330050  RH  030%=      5-min Rain = 0
KCO1 131656Z 20002KT 23/05 A3004 RMK A01 T02330049  RH  030%=      5-min Rain = 0
KCO1 131657Z 21003KT 23/05 A3004 RMK A01 T02340050  RH  030%=      5-min Rain = 0
KCO1 131658Z 22002KT 24/05 A3004 RMK A01 T02350051  RH  030%=      5-min Rain = 0
KCO1 131659Z 21001KT 23/05 A3004 RMK A01 T02330048  RH  030%=      5-min Rain = 0
KCO1 131700Z 24000KT 23/05 A3004 RMK A01 T02320047  RH  030%=      5-min Rain = 0
KCO1 131701Z 34000KT 23/05 A3004 RMK A01 T02320051  RH  031%=      5-min Rain = 0
KCO1 131702Z 05001KT 23/05 A3004 RMK A01 T02340051  RH  031%=      5-min Rain = 0
KCO1 131703Z 05002KT 23/05 A3004 RMK A01 T02340049  RH  030%=      5-min Rain = 0
KCO1 131704Z 07000KT 23/05 A3004 RMK A01 T02340050  RH  030%=      5-min Rain = 0
KCO1 131705Z 23002KT 24/05 A3004 RMK A01 T02360051  RH  030%=      5-min Rain = 0
KCO1 131706Z 24003KT 24/05 A3004 RMK A01 T02360051  RH  030%=      5-min Rain = 0
KCO1 131707Z 24003KT 24/05 A3004 RMK A01 T02360051  RH  030%=      5-min Rain = 0
KCO1 131708Z 26003KT 24/06 A3004 RMK A01 T02360056  RH  031%=      5-min Rain = 0
KCO1 131709Z 24004KT 24/05 A3004 RMK A01 T02370054  RH  031%=      5-min Rain = 0
KCO1 131710Z 24003KT 24/05 A3004 RMK A01 T02360052  RH  030%=      5-min Rain = 0
KCO1 131711Z 27002KT 24/06 A3004 RMK A01 T02350057  RH  032%=      5-min Rain = 0
KCO1 131712Z 29001KT 24/05 A3004 RMK A01 T02350052  RH  030%=      5-min Rain = 0
KCO1 131713Z 28002KT 23/05 A3004 RMK A01 T02340051  RH  030%=      5-min Rain = 0
KCO1 131714Z 29002KT 23/05 A3004 RMK A01 T02330051  RH  031%=      5-min Rain = 0
KCO1 131715Z 26003KT 23/05 A3004 RMK A01 T02320052  RH  031%=      5-min Rain = 0
KCO1 131716Z 26002KT 23/05 A3004 RMK A01 T02300050  RH  031%=      5-min Rain = 0
KCO1 131717Z 31003KT 23/05 A3004 RMK A01 T02310051  RH  031%=      5-min Rain = 0
KCO1 131718Z 31003KT 23/05 A3004 RMK A01 T02320053  RH  031%=      5-min Rain = 0
KCO1 131719Z 30002KT 23/05 A3004 RMK A01 T02320050  RH  031%=      5-min Rain = 0
KCO1 131720Z 34002KT 23/05 A3004 RMK A01 T02310049  RH  031%=      5-min Rain = 0
KCO1 131721Z 32002KT 23/05 A3004 RMK A01 T02310050  RH  031%=      5-min Rain = 0
KCO1 131722Z 31001KT 23/05 A3004 RMK A01 T02310051  RH  031%=      5-min Rain = 0
KCO1 131723Z 32000KT 23/05 A3004 RMK A01 T02310050  RH  031%=      5-min Rain = 0
KCO1 131724Z 05000KT 23/05 A3003 RMK A01 T02340050  RH  030%=      5-min Rain = 0
KCO1 131725Z 14000KT 24/05 A3003 RMK A01 T02360050  RH  030%=      5-min Rain = 0
KCO1 131726Z 18001KT 24/05 A3003 RMK A01 T02380050  RH  030%=      5-min Rain = 0
KCO1 131727Z 16000KT 24/05 A3003 RMK A01 T02390051  RH  030%=      5-min Rain = 0
KCO1 131728Z 18001KT 24/05 A3003 RMK A01 T02420051  RH  029%=      5-min Rain = 0
KCO1 131729Z 21001KT 24/05 A3003 RMK A01 T02440052  RH  029%=      5-min Rain = 0
KCO1 131730Z 17001KT 24/05 A3003 RMK A01 T02430054  RH  029%=      5-min Rain = 0
KCO1 131731Z 09000KT 24/06 A3003 RMK A01 T02430055  RH  030%=      5-min Rain = 0
KCO1 131732Z 18002KT 24/06 A3003 RMK A01 T02430056  RH  030%=      5-min Rain = 0
KCO1 131733Z 19003KT 25/06 A3003 RMK A01 T02460058  RH  030%=      5-min Rain = 0
KCO1 131734Z 20003KT 25/06 A3003 RMK A01 T02470059  RH  030%=      5-min Rain = 0
KCO1 131735Z 20001KT 25/06 A3003 RMK A01 T02480059  RH  030%=      5-min Rain = 0
KCO1 131736Z 05000KT 25/06 A3003 RMK A01 T02490057  RH  029%=      5-min Rain = 0
KCO1 131737Z 06000KT 25/06 A3003 RMK A01 T02490057  RH  029%=      5-min Rain = 0
KCO1 131738Z 04000KT 25/06 A3003 RMK A01 T02510058  RH  029%=      5-min Rain = 0
KCO1 131739Z 35001KT 25/06 A3003 RMK A01 T02530059  RH  029%=      5-min Rain = 0
KCO1 131740Z 27002KT 25/06 A3003 RMK A01 T02540062  RH  029%=      5-min Rain = 0
KCO1 131741Z 23003KT 25/06 A3003 RMK A01 T02530062  RH  029%=      5-min Rain = 0
KCO1 131742Z 23003KT 25/06 A3003 RMK A01 T02510059  RH  029%=      5-min Rain = 0
KCO1 131743Z 23002KT 25/06 A3003 RMK A01 T02490061  RH  030%=      5-min Rain = 0
KCO1 131744Z 20001KT 25/06 A3003 RMK A01 T02500058  RH  029%=      5-min Rain = 0
KCO1 131745Z 21002KT 25/06 A3003 RMK A01 T02510058  RH  029%=      5-min Rain = 0
KCO1 131746Z 22003KT 25/06 A3003 RMK A01 T02530060  RH  029%=      5-min Rain = 0
KCO1 131747Z 22005KT 25/06 A3003 RMK A01 T02530062  RH  029%=      5-min Rain = 0
KCO1 131748Z 20002KT 25/06 A3003 RMK A01 T02530059  RH  029%=      5-min Rain = 0
KCO1 131749Z 18003KT 25/06 A3003 RMK A01 T02520059  RH  029%=      5-min Rain = 0
KCO1 131750Z 13002KT 25/06 A3003 RMK A01 T02510059  RH  029%=      5-min Rain = 0
KCO1 131751Z 21002KT 25/06 A3003 RMK A01 T02520061  RH  029%=      5-min Rain = 0
KCO1 131752Z 26004KT 25/06 A3003 RMK A01 T02530061  RH  029%=      5-min Rain = 0
KCO1 131753Z 27003KT 25/06 A3002 RMK A01 T02540061  RH  029%=      5-min Rain = 0
KCO1 131754Z 26003KT 25/07 A3002 RMK A01 T02540068  RH  030%=      5-min Rain = 0
KCO1 131755Z 25004KT 25/07 A3002 RMK A01 T02540065  RH  030%=      5-min Rain = 0
KCO1 131756Z 25004KT 26/07 A3002 RMK A01 T02550065  RH  030%=      5-min Rain = 0
KCO1 131757Z 26004KT 26/07 A3002 RMK A01 T02570065  RH  029%=      5-min Rain = 0
KCO1 131758Z 31002KT 26/06 A3002 RMK A01 T02580061  RH  028%=      5-min Rain = 0
KCO1 131759Z 35001KT 26/06 A3002 RMK A01 T02560062  RH  029%=      5-min Rain = 0
KCO1 131800Z 27002KT 26/06 A3002 RMK A01 T02570063  RH  029%=      5-min Rain = 0
KCO1 131801Z 27002KT 26/06 A3002 RMK A01 T02570061  RH  029%=      5-min Rain = 0
KCO1 131802Z 29002KT 26/06 A3002 RMK A01 T02570062  RH  029%=      5-min Rain = 0
KCO1 131803Z 30002KT 26/06 A3002 RMK A01 T02560059  RH  028%=      5-min Rain = 0
KCO1 131804Z 29001KT 26/06 A3002 RMK A01 T02560060  RH  029%=      5-min Rain = 0
KCO1 131805Z 27002KT 26/07 A3002 RMK A01 T02560065  RH  029%=      5-min Rain = 0
KCO1 131806Z 26004KT 26/06 A3002 RMK A01 T02560064  RH  029%=      5-min Rain = 0
KCO1 131807Z 25004KT 26/06 A3002 RMK A01 T02560063  RH  029%=      5-min Rain = 0
KCO1 131808Z 25002KT 26/06 A3002 RMK A01 T02560063  RH  029%=      5-min Rain = 0
KCO1 131809Z 25002KT 26/06 A3002 RMK A01 T02560063  RH  029%=      5-min Rain = 0
KCO1 131810Z 23001KT 26/06 A3002 RMK A01 T02570061  RH  029%=      5-min Rain = 0
KCO1 131811Z 30002KT 26/06 A3002 RMK A01 T02580062  RH  029%=      5-min Rain = 0
KCO1 131812Z 30003KT 26/06 A3002 RMK A01 T02600062  RH  028%=      5-min Rain = 0
KCO1 131813Z 26004KT 26/07 A3002 RMK A01 T02600066  RH  029%=      5-min Rain = 0
KCO1 131814Z 23004KT 26/06 A3002 RMK A01 T02610064  RH  028%=      5-min Rain = 0
KCO1 131815Z 26002KT 26/06 A3002 RMK A01 T02620063  RH  028%=      5-min Rain = 0
KCO1 131816Z 27001KT 26/06 A3002 RMK A01 T02620062  RH  028%=      5-min Rain = 0
KCO1 131817Z 26001KT 26/06 A3002 RMK A01 T02630060  RH  027%=      5-min Rain = 0
KCO1 131818Z 26004KT 26/06 A3002 RMK A01 T02640062  RH  028%=      5-min Rain = 0
KCO1 131819Z 25003KT 26/07 A3002 RMK A01 T02640066  RH  028%=      5-min Rain = 0
KCO1 131820Z 23006KT 26/07 A3002 RMK A01 T02640066  RH  028%=      5-min Rain = 0
KCO1 131821Z 23006KT 27/06 A3002 RMK A01 T02650064  RH  028%=      5-min Rain = 0
KCO1 131822Z 27004KT 27/06 A3002 RMK A01 T02650064  RH  028%=      5-min Rain = 0
KCO1 131823Z 24005KT 27/07 A3002 RMK A01 T02650066  RH  028%=      5-min Rain = 0
KCO1 131824Z 23004KT 26/06 A3002 RMK A01 T02630063  RH  028%=      5-min Rain = 0
KCO1 131825Z 22004KT 26/06 A3002 RMK A01 T02630063  RH  028%=      5-min Rain = 0
KCO1 131826Z 25003KT 26/06 A3002 RMK A01 T02630062  RH  028%=      5-min Rain = 0
KCO1 131827Z 26004KT 26/06 A3002 RMK A01 T02640062  RH  028%=      5-min Rain = 0
KCO1 131828Z 27005KT 27/07 A3001 RMK A01 T02650066  RH  028%=      5-min Rain = 0
KCO1 131829Z 26004KT 27/06 A3001 RMK A01 T02650064  RH  028%=      5-min Rain = 0
KCO1 131830Z 26003KT 27/07 A3001 RMK A01 T02660067  RH  028%=      5-min Rain = 0
KCO1 131831Z 28003KT 27/07 A3001 RMK A01 T02670067  RH  028%=      5-min Rain = 0
KCO1 131832Z 25005KT 27/07 A3001 RMK A01 T02680067  RH  028%=      5-min Rain = 0
KCO1 131833Z 24002KT 27/06 A3001 RMK A01 T02690064  RH  027%=      5-min Rain = 0
KCO1 131834Z 24003KT 27/07 A3001 RMK A01 T02700069  RH  028%=      5-min Rain = 0
KCO1 131835Z 26003KT 27/06 A3001 RMK A01 T02720063  RH  026%=      5-min Rain = 0
KCO1 131836Z 27005KT 27/07 A3001 RMK A01 T02730068  RH  027%=      5-min Rain = 0
KCO1 131837Z 28004KT 27/07 A3001 RMK A01 T02740069  RH  027%=      5-min Rain = 0
KCO1 131838Z 27004KT 28/07 A30 RMK A01 T02750071  RH  028%=      5-min Rain = 0
KCO1 131839Z 27003KT 28/07 A30 RMK A01 T02770072  RH  027%=      5-min Rain = 0
KCO1 131840Z 29005KT 28/07 A30 RMK A01 T02790070  RH  027%=      5-min Rain = 0
KCO1 131841Z 31005KT 28/07 A30 RMK A01 T02800066  RH  026%=      5-min Rain = 0
KCO1 131842Z 32005KT 28/06 A30 RMK A01 T02770061  RH  025%=      5-min Rain = 0
KCO1 131843Z 30006KT 27/06 A30 RMK A01 T02740063  RH  026%=      5-min Rain = 0
KCO1 131844Z 31005KT 27/06 A30 RMK A01 T02740063  RH  026%=      5-min Rain = 0
KCO1 131845Z 31004KT 27/07 A30 RMK A01 T02730065  RH  027%=      5-min Rain = 0
KCO1 131846Z 29004KT 27/06 A30 RMK A01 T02740063  RH  026%=      5-min Rain = 0
KCO1 131847Z 27004KT 27/07 A30 RMK A01 T02740065  RH  026%=      5-min Rain = 0
KCO1 131848Z 30005KT 28/07 A30 RMK A01 T02750069  RH  027%=      5-min Rain = 0
KCO1 131849Z 32004KT 28/06 A2999 RMK A01 T02780064  RH  026%=      5-min Rain = 0
KCO1 131850Z 33005KT 28/06 A2999 RMK A01 T02790064  RH  026%=      5-min Rain = 0
KCO1 131851Z 35003KT 28/06 A2999 RMK A01 T02820062  RH  025%=      5-min Rain = 0
KCO1 131852Z 32004KT 28/06 A2999 RMK A01 T02840061  RH  024%=      5-min Rain = 0
KCO1 131853Z 29005KT 28/06 A2999 RMK A01 T02840062  RH  024%=      5-min Rain = 0
KCO1 131854Z 26006KT 28/07 A2999 RMK A01 T02840066  RH  025%=      5-min Rain = 0
KCO1 131855Z 26005KT 29/06 A2999 RMK A01 T02850063  RH  025%=      5-min Rain = 0
KCO1 131856Z 29002KT 28/06 A2999 RMK A01 T02820058  RH  024%=      5-min Rain = 0
KCO1 131857Z 24004KT 28/06 A2999 RMK A01 T02810059  RH  024%=      5-min Rain = 0
KCO1 131858Z 24003KT 28/06 A2999 RMK A01 T02810063  RH  025%=      5-min Rain = 0
KCO1 131859Z 25003KT 28/07 A2999 RMK A01 T02840066  RH  025%=      5-min Rain = 0
KCO1 131900Z 25006KT 29/06 A2999 RMK A01 T02850062  RH  024%=      5-min Rain = 0
KCO1 131901Z 26004KT 29/06 A2999 RMK A01 T02850063  RH  025%=      5-min Rain = 0
KCO1 131902Z 25004KT 28/06 A2999 RMK A01 T02840063  RH  025%=      5-min Rain = 0
KCO1 131903Z 24004KT 28/06 A2999 RMK A01 T02840063  RH  025%=      5-min Rain = 0
KCO1 131904Z 23004KT 28/06 A2999 RMK A01 T02830060  RH  024%=      5-min Rain = 0
KCO1 131905Z 22006KT 28/06 A2999 RMK A01 T02840063  RH  025%=      5-min Rain = 0
KCO1 131906Z 21004KT 29/06 A2999 RMK A01 T02850061  RH  024%=      5-min Rain = 0
KCO1 131907Z 22004KT 29/06 A2999 RMK A01 T02850061  RH  024%=      5-min Rain = 0
KCO1 131908Z 20003KT 29/06 A2999 RMK A01 T02850059  RH  024%=      5-min Rain = 0
KCO1 131909Z 22004KT 29/06 A2999 RMK A01 T02860059  RH  024%=      5-min Rain = 0
KCO1 131910Z 20003KT 29/06 A2999 RMK A01 T02870056  RH  023%=      5-min Rain = 0
KCO1 131911Z 20003KT 29/06 A2999 RMK A01 T02870055  RH  023%=      5-min Rain = 0
KCO1 131912Z 20003KT 29/06 A2999 RMK A01 T02850056  RH  023%=      5-min Rain = 0
KCO1 131913Z 19002KT 28/06 A2999 RMK A01 T02830056  RH  024%=      5-min Rain = 0
KCO1 131914Z 20002KT 28/06 A2999 RMK A01 T02830056  RH  024%=      5-min Rain = 0
KCO1 131915Z 31005KT 28/06 A2999 RMK A01 T02840055  RH  023%=      5-min Rain = 0
KCO1 131916Z 31004KT 29/05 A2998 RMK A01 T02850050  RH  022%=      5-min Rain = 0
KCO1 131917Z 32003KT 29/05 A2998 RMK A01 T02860050  RH  022%=      5-min Rain = 0
KCO1 131918Z 29004KT 29/05 A2998 RMK A01 T02870050  RH  022%=      5-min Rain = 0
KCO1 131919Z 30005KT 29/05 A2998 RMK A01 T02880046  RH  021%=      5-min Rain = 0
KCO1 131920Z 28003KT 29/04 A2998 RMK A01 T02870044  RH  021%=      5-min Rain = 0
KCO1 131921Z 32002KT 29/05 A2998 RMK A01 T02860048  RH  022%=      5-min Rain = 0
KCO1 131922Z 35004KT 29/04 A2998 RMK A01 T02870039  RH  020%=      5-min Rain = 0
KCO1 131923Z 34003KT 29/04 A2998 RMK A01 T02870039  RH  021%=      5-min Rain = 0
KCO1 131924Z 33004KT 29/04 A2998 RMK A01 T02860041  RH  021%=      5-min Rain = 0
KCO1 131925Z 34005KT 29/04 A2998 RMK A01 T02860042  RH  021%=      5-min Rain = 0
KCO1 131926Z 32005KT 29/05 A2998 RMK A01 T02870045  RH  021%=      5-min Rain = 0
KCO1 131927Z 30002KT 29/05 A2998 RMK A01 T02870045  RH  021%=      5-min Rain = 0
KCO1 131928Z 30004KT 29/05 A2998 RMK A01 T02870054  RH  023%=      5-min Rain = 0
KCO1 131929Z 29006KT 29/05 A2998 RMK A01 T02880046  RH  021%=      5-min Rain = 0
KCO1 131930Z 30005KT 29/04 A2998 RMK A01 T02870042  RH  021%=      5-min Rain = 0
KCO1 131931Z 30007KT 29/04 A2997 RMK A01 T02870041  RH  021%=      5-min Rain = 0
KCO1 131932Z 31007KT 29/04 A2997 RMK A01 T02860040  RH  021%=      5-min Rain = 0
KCO1 131933Z 28006KT 29/04 A2997 RMK A01 T02860043  RH  021%=      5-min Rain = 0
KCO1 131934Z 28006KT 29/05 A2997 RMK A01 T02850045  RH  022%=      5-min Rain = 0
KCO1 131935Z 29005KT 29/05 A2997 RMK A01 T02850047  RH  022%=      5-min Rain = 0
KCO1 131936Z 33004KT 29/04 A2997 RMK A01 T02850039  RH  021%=      5-min Rain = 0
KCO1 131937Z 31003KT 28/04 A2997 RMK A01 T02840042  RH  021%=      5-min Rain = 0
KCO1 131938Z 31003KT 28/05 A2997 RMK A01 T02840046  RH  022%=      5-min Rain = 0
KCO1 131939Z 28005KT 29/05 A2997 RMK A01 T02850046  RH  022%=      5-min Rain = 0
KCO1 131940Z 29005KT 29/05 A2997 RMK A01 T02870047  RH  022%=      5-min Rain = 0
KCO1 131941Z 32004KT 29/05 A2997 RMK A01 T02870049  RH  022%=      5-min Rain = 0
KCO1 131942Z 32005KT 29/05 A2997 RMK A01 T02870047  RH  022%=      5-min Rain = 0
KCO1 131943Z 29006KT 29/05 A2997 RMK A01 T02870046  RH  021%=      5-min Rain = 0
KCO1 131944Z 28004KT 29/05 A2997 RMK A01 T02870046  RH  022%=      5-min Rain = 0
KCO1 131945Z 28003KT 29/05 A2997 RMK A01 T02880051  RH  022%=      5-min Rain = 0
KCO1 131946Z 30004KT 29/05 A2997 RMK A01 T02890046  RH  021%=      5-min Rain = 0
KCO1 131947Z 28001KT 29/05 A2997 RMK A01 T02890045  RH  021%=      5-min Rain = 0
KCO1 131948Z 29000KT 29/05 A2997 RMK A01 T02880046  RH  021%=      5-min Rain = 0
KCO1 131949Z 31002KT 29/05 A2997 RMK A01 T02890048  RH  022%=      5-min Rain = 0
KCO1 131950Z 32001KT 29/04 A2997 RMK A01 T02900043  RH  021%=      5-min Rain = 0
KCO1 131951Z 29003KT 29/05 A2997 RMK A01 T02900045  RH  021%=      5-min Rain = 0
KCO1 131952Z 31004KT 29/05 A2997 RMK A01 T02900047  RH  021%=      5-min Rain = 0
KCO1 131953Z 33003KT 29/05 A2997 RMK A01 T02920045  RH  021%=      5-min Rain = 0
KCO1 131954Z 31005KT 29/05 A2997 RMK A01 T02910047  RH  021%=      5-min Rain = 0
KCO1 131955Z 31004KT 29/04 A2997 RMK A01 T02920043  RH  021%=      5-min Rain = 0
KCO1 131956Z 32004KT 29/04 A2997 RMK A01 T02910044  RH  021%=      5-min Rain = 0
KCO1 131957Z 32005KT 29/04 A2997 RMK A01 T02910039  RH  020%=      5-min Rain = 0
KCO1 131958Z 34003KT 29/04 A2997 RMK A01 T02900036  RH  020%=      5-min Rain = 0
KCO1 131959Z 02002KT 29/04 A2997 RMK A01 T02890036  RH  020%=      5-min Rain = 0
KCO1 132000Z 03000KT 29/04 A2997 RMK A01 T02890036  RH  020%=      5-min Rain = 0
KCO1 132001Z 24002KT 29/04 A2997 RMK A01 T02920037  RH  020%=      5-min Rain = 0
KCO1 132002Z 23002KT 30/04 A2997 RMK A01 T02950039  RH  020%=      5-min Rain = 0
KCO1 132003Z 25002KT 30/04 A2997 RMK A01 T02960041  RH  020%=      5-min Rain = 0
KCO1 132004Z 27004KT 30/05 A2997 RMK A01 T02980050  RH  021%=      5-min Rain = 0
KCO1 132005Z 26005KT 30/05 A2997 RMK A01 T02990053  RH  021%=      5-min Rain = 0
KCO1 132006Z 24005KT 30/05 A2997 RMK A01 T02980046  RH  020%=      5-min Rain = 0
KCO1 132007Z 21003KT 30/04 A2997 RMK A01 T02970043  RH  020%=      5-min Rain = 0
KCO1 132008Z 22002KT 30/04 A2997 RMK A01 T02960043  RH  020%=      5-min Rain = 0
KCO1 132009Z 21001KT 30/04 A2996 RMK A01 T02970042  RH  020%=      5-min Rain = 0
KCO1 132010Z 22004KT 30/04 A2996 RMK A01 T03000042  RH  019%=      5-min Rain = 0
KCO1 132011Z 22003KT 30/04 A2996 RMK A01 T03010042  RH  019%=      5-min Rain = 0
KCO1 132012Z 29005KT 30/04 A2996 RMK A01 T03020044  RH  020%=      5-min Rain = 0
KCO1 132013Z 30007KT 31/03 A2996 RMK A01 T03050032  RH  018%=      5-min Rain = 0
KCO1 132014Z 29006KT 30/04 A2996 RMK A01 T03040040  RH  019%=      5-min Rain = 0
KCO1 132015Z 29002KT 30/03 A2996 RMK A01 T03010034  RH  018%=      5-min Rain = 0
KCO1 132016Z 32004KT 30/03 A2996 RMK A01 T03000034  RH  018%=      5-min Rain = 0
KCO1 132017Z 31005KT 30/03 A2996 RMK A01 T03000034  RH  018%=      5-min Rain = 0
KCO1 132018Z 29005KT 30/04 A2996 RMK A01 T03000037  RH  019%=      5-min Rain = 0
KCO1 132019Z 28005KT 30/04 A2996 RMK A01 T02990038  RH  019%=      5-min Rain = 0
KCO1 132020Z 28004KT 30/04 A2996 RMK A01 T02980041  RH  019%=      5-min Rain = 0
KCO1 132021Z 29004KT 30/04 A2996 RMK A01 T02980041  RH  020%=      5-min Rain = 0
KCO1 132022Z 32004KT 30/04 A2996 RMK A01 T02980038  RH  019%=      5-min Rain = 0
KCO1 132023Z 33004KT 30/03 A2996 RMK A01 T02990033  RH  018%=      5-min Rain = 0
KCO1 132024Z 31006KT 30/03 A2996 RMK A01 T03000030  RH  018%=      5-min Rain = 0
KCO1 132025Z 32005KT 30/03 A2996 RMK A01 T03000030  RH  018%=      5-min Rain = 0
KCO1 132026Z 31006KT 30/03 A2996 RMK A01 T03000028  RH  018%=      5-min Rain = 0
KCO1 132027Z 34004KT 30/03 A2996 RMK A01 T03000027  RH  018%=      5-min Rain = 0
KCO1 132028Z 31002KT 30/03 A2996 RMK A01 T02980028  RH  018%=      5-min Rain = 0
KCO1 132029Z 30004KT 30/03 A2996 RMK A01 T02970034  RH  019%=      5-min Rain = 0
KCO1 132030Z 27002KT 30/03 A2996 RMK A01 T02980033  RH  019%=      5-min Rain = 0
KCO1 132031Z 25003KT 30/03 A2996 RMK A01 T02990032  RH  018%=      5-min Rain = 0
KCO1 132032Z 27005KT 30/03 A2996 RMK A01 T02990034  RH  018%=      5-min Rain = 0
KCO1 132033Z 26004KT 30/04 A2996 RMK A01 T02990035  RH  019%=      5-min Rain = 0
KCO1 132034Z 24005KT 30/03 A2996 RMK A01 T03000030  RH  018%=      5-min Rain = 0
KCO1 132035Z 25005G10KT 30/03 A2995 RMK A01 T03000033  RH  018%=      5-min Rain = 0
KCO1 132036Z 25006KT 30/04 A2995 RMK A01 T02990039  RH  019%=      5-min Rain = 0
KCO1 132037Z 26006KT 30/04 A2995 RMK A01 T03010038  RH  019%=      5-min Rain = 0
KCO1 132038Z 24003KT 30/03 A2995 RMK A01 T03020032  RH  018%=      5-min Rain = 0
KCO1 132039Z 24003KT 30/03 A2995 RMK A01 T03000028  RH  018%=      5-min Rain = 0
KCO1 132040Z 25005KT 30/04 A2995 RMK A01 T03000036  RH  019%=      5-min Rain = 0
KCO1 132041Z 27005KT 30/04 A2995 RMK A01 T03000037  RH  019%=      5-min Rain = 0
KCO1 132042Z 26004KT 30/03 A2995 RMK A01 T03010029  RH  018%=      5-min Rain = 0
KCO1 132043Z 26004KT 30/03 A2995 RMK A01 T03000028  RH  018%=      5-min Rain = 0
KCO1 132044Z 29003KT 30/03 A2995 RMK A01 T02990034  RH  018%=      5-min Rain = 0
KCO1 132045Z 32003KT 30/03 A2995 RMK A01 T02990031  RH  018%=      5-min Rain = 0
KCO1 132046Z 30001KT 30/04 A2995 RMK A01 T02990037  RH  019%=      5-min Rain = 0
KCO1 132047Z 29003KT 30/04 A2995 RMK A01 T02980035  RH  019%=      5-min Rain = 0
KCO1 132048Z 30003KT 30/03 A2995 RMK A01 T02990032  RH  018%=      5-min Rain = 0
KCO1 132049Z 27003KT 30/03 A2995 RMK A01 T02990028  RH  018%=      5-min Rain = 0
KCO1 132050Z 26002KT 30/04 A2995 RMK A01 T02990037  RH  019%=      5-min Rain = 0
KCO1 132051Z 26001KT 30/04 A2995 RMK A01 T03000036  RH  019%=      5-min Rain = 0
KCO1 132052Z 36002KT 30/03 A2995 RMK A01 T03000027  RH  017%=      5-min Rain = 0
KCO1 132053Z 01001KT 30/03 A2995 RMK A01 T02990025  RH  017%=      5-min Rain = 0
KCO1 132054Z 06001KT 30/03 A2995 RMK A01 T02970029  RH  018%=      5-min Rain = 0
KCO1 132055Z 12001KT 30/03 A2995 RMK A01 T02970029  RH  018%=      5-min Rain = 0
KCO1 132056Z 17002KT 30/04 A2995 RMK A01 T02970035  RH  019%=      5-min Rain = 0
KCO1 132057Z 29003KT 30/03 A2995 RMK A01 T02980032  RH  018%=      5-min Rain = 0
KCO1 132058Z 28003KT 30/03 A2995 RMK A01 T02990028  RH  018%=      5-min Rain = 0
KCO1 132059Z 28001KT 30/03 A2995 RMK A01 T02980028  RH  018%=      5-min Rain = 0
KCO1 132100Z 32002KT 30/03 A2995 RMK A01 T02970028  RH  018%=      5-min Rain = 0
KCO1 132101Z 34002KT 30/03 A2995 RMK A01 T02970025  RH  017%=      5-min Rain = 0
KCO1 132102Z 34001KT 30/02 A2995 RMK A01 T02970024  RH  017%=      5-min Rain = 0
KCO1 132103Z 29000KT 30/03 A2995 RMK A01 T02980028  RH  018%=      5-min Rain = 0
KCO1 132104Z 24001KT 30/03 A2995 RMK A01 T03000026  RH  017%=      5-min Rain = 0
KCO1 132105Z 28001KT 30/03 A2995 RMK A01 T03010025  RH  017%=      5-min Rain = 0
KCO1 132106Z 26001KT 30/03 A2995 RMK A01 T03020031  RH  018%=      5-min Rain = 0
KCO1 132107Z 26001KT 30/03 A2995 RMK A01 T03030028  RH  017%=      5-min Rain = 0
KCO1 132108Z 29002KT 30/03 A2995 RMK A01 T03040033  RH  018%=      5-min Rain = 0
KCO1 132109Z 27002KT 30/04 A2995 RMK A01 T03040040  RH  019%=      5-min Rain = 0
KCO1 132110Z 24001KT 30/03 A2995 RMK A01 T03040033  RH  018%=      5-min Rain = 0
KCO1 132111Z 31001KT 30/03 A2995 RMK A01 T03040032  RH  018%=      5-min Rain = 0
KCO1 132112Z 33003KT 30/03 A2995 RMK A01 T03040029  RH  017%=      5-min Rain = 0
KCO1 132113Z 33002KT 30/03 A2995 RMK A01 T03030025  RH  017%=      5-min Rain = 0
KCO1 132114Z 23002KT 30/03 A2995 RMK A01 T03020030  RH  018%=      5-min Rain = 0
KCO1 132115Z 23003KT 30/04 A2995 RMK A01 T03020035  RH  018%=      5-min Rain = 0
KCO1 132116Z 25004KT 30/03 A2995 RMK A01 T03020031  RH  018%=      5-min Rain = 0
KCO1 132117Z 24004KT 30/03 A2995 RMK A01 T03020025  RH  017%=      5-min Rain = 0
KCO1 132118Z 23002KT 30/02 A2995 RMK A01 T03000023  RH  017%=      5-min Rain = 0
KCO1 132119Z 21001KT 30/02 A2995 RMK A01 T02990022  RH  017%=      5-min Rain = 0
KCO1 132120Z 23001KT 30/02 A2995 RMK A01 T02990019  RH  017%=      5-min Rain = 0
KCO1 132121Z 20001KT 30/02 A2995 RMK A01 T02990019  RH  017%=      5-min Rain = 0
KCO1 132122Z 23001KT 30/02 A2995 RMK A01 T02990017  RH  016%=      5-min Rain = 0
KCO1 132123Z 22001KT 30/02 A2995 RMK A01 T02990017  RH  016%=      5-min Rain = 0
KCO1 132124Z 17001KT 30/02 A2995 RMK A01 T03000021  RH  017%=      5-min Rain = 0
KCO1 132125Z 16003KT 30/02 A2995 RMK A01 T03010023  RH  017%=      5-min Rain = 0
KCO1 132126Z 17002KT 30/02 A2995 RMK A01 T03010022  RH  017%=      5-min Rain = 0
KCO1 132127Z 19002KT 30/02 A2995 RMK A01 T03000019  RH  016%=      5-min Rain = 0
KCO1 132128Z 21002KT 30/02 A2995 RMK A01 T03010020  RH  017%=      5-min Rain = 0
KCO1 132129Z 14003KT 30/03 A2995 RMK A01 T03000028  RH  018%=      5-min Rain = 0
KCO1 132130Z 14004KT 30/03 A2995 RMK A01 T03010030  RH  018%=      5-min Rain = 0
KCO1 132131Z 14004KT 30/03 A2995 RMK A01 T03010026  RH  017%=      5-min Rain = 0
KCO1 132132Z 15003KT 30/03 A2994 RMK A01 T03010029  RH  018%=      5-min Rain = 0
KCO1 132133Z 19003KT 30/03 A2994 RMK A01 T03020034  RH  018%=      5-min Rain = 0
KCO1 132134Z 21004KT 30/03 A2994 RMK A01 T03030033  RH  018%=      5-min Rain = 0
KCO1 132135Z 21004KT 30/03 A2994 RMK A01 T03040028  RH  017%=      5-min Rain = 0
KCO1 132136Z 22004KT 31/03 A2994 RMK A01 T03050026  RH  017%=      5-min Rain = 0
KCO1 132137Z 21003KT 30/03 A2994 RMK A01 T03040026  RH  017%=      5-min Rain = 0
KCO1 132138Z 19004KT 30/03 A2994 RMK A01 T03030032  RH  018%=      5-min Rain = 0
KCO1 132139Z 23004KT 30/03 A2994 RMK A01 T03030033  RH  018%=      5-min Rain = 0
KCO1 132140Z 27004KT 30/03 A2994 RMK A01 T03020030  RH  018%=      5-min Rain = 0
KCO1 132141Z 27004KT 30/03 A2994 RMK A01 T03010030  RH  018%=      5-min Rain = 0
KCO1 132142Z 25004KT 30/02 A2994 RMK A01 T02990024  RH  017%=      5-min Rain = 0
KCO1 132143Z 24002KT 30/02 A2994 RMK A01 T02980023  RH  017%=      5-min Rain = 0
KCO1 132144Z 22003KT 30/02 A2994 RMK A01 T02970022  RH  017%=      5-min Rain = 0
KCO1 132145Z 19005KT 30/02 A2994 RMK A01 T02970022  RH  017%=      5-min Rain = 0
KCO1 132146Z 18004KT 30/02 A2994 RMK A01 T02960018  RH  017%=      5-min Rain = 0
KCO1 132147Z 17003KT 30/02 A2994 RMK A01 T02950019  RH  017%=      5-min Rain = 0
KCO1 132148Z 16002KT 29/02 A2994 RMK A01 T02940019  RH  017%=      5-min Rain = 0
KCO1 132149Z 13001KT 29/02 A2994 RMK A01 T02940019  RH  017%=      5-min Rain = 0
KCO1 132150Z 13001KT 29/02 A2994 RMK A01 T02940023  RH  018%=      5-min Rain = 0
KCO1 132151Z 17001KT 30/03 A2994 RMK A01 T02950030  RH  018%=      5-min Rain = 0
KCO1 132152Z 24002KT 30/03 A2994 RMK A01 T02960030  RH  018%=      5-min Rain = 0
KCO1 132153Z 22002KT 30/02 A2994 RMK A01 T02970019  RH  017%=      5-min Rain = 0
KCO1 132154Z 19001KT 30/02 A2994 RMK A01 T02970019  RH  017%=      5-min Rain = 0
KCO1 132155Z 19000KT 30/02 A2994 RMK A01 T02970018  RH  017%=      5-min Rain = 0
KCO1 132156Z 31001KT 30/02 A2994 RMK A01 T02970017  RH  017%=      5-min Rain = 0
KCO1 132157Z 28000KT 30/02 A2994 RMK A01 T02970020  RH  017%=      5-min Rain = 0
KCO1 132158Z 22000KT 30/03 A2994 RMK A01 T02980027  RH  018%=      5-min Rain = 0
KCO1 132159Z 18000KT 30/03 A2994 RMK A01 T02980034  RH  019%=      5-min Rain = 0
KCO1 132200Z 20002KT 30/03 A2994 RMK A01 T02980034  RH  019%=      5-min Rain = 0
KCO1 132201Z 23002KT 30/03 A2994 RMK A01 T02980028  RH  018%=      5-min Rain = 0
KCO1 132202Z 21003KT 30/03 A2994 RMK A01 T02980029  RH  018%=      5-min Rain = 0
KCO1 132203Z 20004KT 30/03 A2994 RMK A01 T02970031  RH  018%=      5-min Rain = 0
KCO1 132204Z 21004KT 30/03 A2994 RMK A01 T02960030  RH  018%=      5-min Rain = 0
KCO1 132205Z 20003KT 30/03 A2994 RMK A01 T02950026  RH  018%=      5-min Rain = 0
KCO1 132206Z 17002KT 29/02 A2994 RMK A01 T02940020  RH  017%=      5-min Rain = 0
KCO1 132207Z 11002KT 29/02 A2994 RMK A01 T02940022  RH  017%=      5-min Rain = 0
KCO1 132208Z 10001KT 29/03 A2994 RMK A01 T02940028  RH  018%=      5-min Rain = 0
KCO1 132209Z 12001KT 29/02 A2994 RMK A01 T02940023  RH  018%=      5-min Rain = 0
KCO1 132210Z 13002KT 29/02 A2994 RMK A01 T02930023  RH  018%=      5-min Rain = 0
KCO1 132211Z 15003KT 29/03 A2994 RMK A01 T02930031  RH  019%=      5-min Rain = 0
KCO1 132212Z 13003KT 29/03 A2994 RMK A01 T02930032  RH  019%=      5-min Rain = 0
KCO1 132213Z 13002KT 29/04 A2994 RMK A01 T02920035  RH  019%=      5-min Rain = 0
KCO1 132214Z 12002KT 29/04 A2994 RMK A01 T02910036  RH  020%=      5-min Rain = 0
KCO1 132215Z 14001KT 29/05 A2994 RMK A01 T02910045  RH  021%=      5-min Rain = 0
KCO1 132216Z 12001KT 29/04 A2994 RMK A01 T02900036  RH  020%=      5-min Rain = 0
KCO1 132217Z 11001KT 29/04 A2994 RMK A01 T02900035  RH  020%=      5-min Rain = 0
KCO1 132218Z 11001KT 29/04 A2994 RMK A01 T02900037  RH  020%=      5-min Rain = 0
KCO1 132219Z 20001KT 29/03 A2994 RMK A01 T02900031  RH  019%=      5-min Rain = 0
KCO1 132220Z 19003KT 29/03 A2994 RMK A01 T02910031  RH  019%=      5-min Rain = 0
KCO1 132221Z 21002KT 29/03 A2994 RMK A01 T02910032  RH  019%=      5-min Rain = 0
KCO1 132222Z 23002KT 29/03 A2994 RMK A01 T02910028  RH  019%=      5-min Rain = 0
KCO1 132223Z 22002KT 29/02 A2994 RMK A01 T02910024  RH  018%=      5-min Rain = 0
KCO1 132224Z 19002KT 29/02 A2994 RMK A01 T02910023  RH  018%=      5-min Rain = 0
KCO1 132225Z 21002KT 29/03 A2994 RMK A01 T02910027  RH  018%=      5-min Rain = 0
KCO1 132226Z 20003KT 29/03 A2994 RMK A01 T02910032  RH  019%=      5-min Rain = 0
KCO1 132227Z 20002KT 29/03 A2994 RMK A01 T02910034  RH  019%=      5-min Rain = 0
KCO1 132228Z 22003KT 29/03 A2994 RMK A01 T02910033  RH  019%=      5-min Rain = 0
KCO1 132229Z 23003KT 29/03 A2994 RMK A01 T02910034  RH  019%=      5-min Rain = 0
KCO1 132230Z 24003KT 29/03 A2994 RMK A01 T02900031  RH  019%=      5-min Rain = 0
KCO1 132231Z 23003KT 29/04 A2994 RMK A01 T02900037  RH  020%=      5-min Rain = 0
KCO1 132232Z 22002KT 29/03 A2994 RMK A01 T02900033  RH  019%=      5-min Rain = 0
KCO1 132233Z 18002KT 29/04 A2994 RMK A01 T02890040  RH  020%=      5-min Rain = 0
KCO1 132234Z 16003KT 29/05 A2994 RMK A01 T02890045  RH  021%=      5-min Rain = 0
KCO1 132235Z 15003KT 29/04 A2994 RMK A01 T02890044  RH  021%=      5-min Rain = 0
KCO1 132236Z 16004KT 29/04 A2994 RMK A01 T02880040  RH  021%=      5-min Rain = 0
KCO1 132237Z 16004KT 29/04 A2994 RMK A01 T02880038  RH  020%=      5-min Rain = 0
KCO1 132238Z 17004KT 29/04 A2994 RMK A01 T02880039  RH  020%=      5-min Rain = 0
KCO1 132239Z 17004KT 29/04 A2994 RMK A01 T02880038  RH  020%=      5-min Rain = 0
KCO1 132240Z 16003KT 29/03 A2994 RMK A01 T02880030  RH  019%=      5-min Rain = 0
KCO1 132241Z 15003KT 29/03 A2994 RMK A01 T02880032  RH  019%=      5-min Rain = 0
KCO1 132242Z 15003KT 29/03 A2995 RMK A01 T02880033  RH  020%=      5-min Rain = 0
KCO1 132243Z 17003KT 29/04 A2995 RMK A01 T02880040  RH  021%=      5-min Rain = 0
KCO1 132244Z 18004KT 29/04 A2995 RMK A01 T02880039  RH  020%=      5-min Rain = 0
KCO1 132245Z 18004KT 29/04 A2995 RMK A01 T02880040  RH  020%=      5-min Rain = 0
KCO1 132246Z 18004KT 29/04 A2995 RMK A01 T02870035  RH  020%=      5-min Rain = 0
KCO1 132247Z 18004KT 29/03 A2995 RMK A01 T02870032  RH  019%=      5-min Rain = 0
KCO1 132248Z 18004KT 29/03 A2995 RMK A01 T02870032  RH  020%=      5-min Rain = 0
KCO1 132249Z 18004KT 29/03 A2995 RMK A01 T02870028  RH  019%=      5-min Rain = 0
KCO1 132250Z 18003KT 29/03 A2995 RMK A01 T02870029  RH  019%=      5-min Rain = 0
KCO1 132251Z 17003KT 29/03 A2995 RMK A01 T02880034  RH  020%=      5-min Rain = 0
KCO1 132252Z 16004KT 29/04 A2995 RMK A01 T02870035  RH  020%=      5-min Rain = 0
KCO1 132253Z 17004KT 29/04 A2995 RMK A01 T02870039  RH  021%=      5-min Rain = 0
KCO1 132254Z 17004KT 29/04 A2995 RMK A01 T02860039  RH  021%=      5-min Rain = 0
KCO1 132255Z 18004KT 29/04 A2995 RMK A01 T02860039  RH  021%=      5-min Rain = 0
KCO1 132256Z 18004KT 29/04 A2995 RMK A01 T02860037  RH  020%=      5-min Rain = 0
KCO1 132257Z 18004KT 29/04 A2995 RMK A01 T02850037  RH  020%=      5-min Rain = 0
KCO1 132258Z 18004KT 29/04 A2995 RMK A01 T02850035  RH  020%=      5-min Rain = 0
KCO1 132259Z 19003KT 29/04 A2995 RMK A01 T02850035  RH  020%=      5-min Rain = 0
KCO1 132300Z 19004KT 29/04 A2995 RMK A01 T02850035  RH  020%=      5-min Rain = 0
KCO1 132301Z 19004KT 29/04 A2995 RMK A01 T02850038  RH  021%=      5-min Rain = 0
KCO1 132302Z 19004KT 28/04 A2995 RMK A01 T02840039  RH  021%=      5-min Rain = 0
KCO1 132303Z 19004KT 28/04 A2995 RMK A01 T02840042  RH  021%=      5-min Rain = 0
KCO1 132304Z 18004KT 28/04 A2995 RMK A01 T02830041  RH  021%=      5-min Rain = 0
KCO1 132305Z 18003KT 28/04 A2994 RMK A01 T02830044  RH  022%=      5-min Rain = 0
KCO1 132306Z 18003KT 28/05 A2994 RMK A01 T02830045  RH  022%=      5-min Rain = 0
KCO1 132307Z 18003KT 28/05 A2994 RMK A01 T02820045  RH  022%=      5-min Rain = 0
KCO1 132308Z 18004KT 28/04 A2994 RMK A01 T02820040  RH  021%=      5-min Rain = 0
KCO1 132309Z 18004KT 28/04 A2994 RMK A01 T02820043  RH  022%=      5-min Rain = 0
KCO1 132310Z 18004KT 28/04 A2994 RMK A01 T02820041  RH  021%=      5-min Rain = 0
KCO1 132311Z 18004KT 28/04 A2994 RMK A01 T02820041  RH  021%=      5-min Rain = 0
KCO1 132312Z 18004KT 28/04 A2995 RMK A01 T02820039  RH  021%=      5-min Rain = 0
KCO1 132313Z 18004KT 28/04 A2995 RMK A01 T02820043  RH  022%=      5-min Rain = 0
KCO1 132314Z 18004KT 28/05 A2995 RMK A01 T02820050  RH  023%=      5-min Rain = 0
KCO1 132315Z 18004KT 28/05 A2995 RMK A01 T02810051  RH  023%=      5-min Rain = 0
KCO1 132316Z 18004KT 28/05 A2995 RMK A01 T02800050  RH  023%=      5-min Rain = 0
KCO1 132317Z 18004KT 28/05 A2995 RMK A01 T02800046  RH  023%=      5-min Rain = 0
KCO1 132318Z 17005KT 28/04 A2995 RMK A01 T02790044  RH  022%=      5-min Rain = 0
KCO1 132319Z 17005KT 28/04 A2995 RMK A01 T02800041  RH  022%=      5-min Rain = 0
KCO1 132320Z 17004KT 28/04 A2995 RMK A01 T02800037  RH  021%=      5-min Rain = 0
KCO1 132321Z 18004KT 28/04 A2995 RMK A01 T02800038  RH  021%=      5-min Rain = 0
KCO1 132322Z 18003KT 28/04 A2995 RMK A01 T02800041  RH  022%=      5-min Rain = 0
KCO1 132323Z 17003KT 28/05 A2995 RMK A01 T02800047  RH  023%=      5-min Rain = 0
KCO1 132324Z 16003KT 28/05 A2995 RMK A01 T02790050  RH  023%=      5-min Rain = 0
KCO1 132325Z 15003KT 28/05 A2995 RMK A01 T02780047  RH  023%=      5-min Rain = 0
KCO1 132326Z 15003KT 28/05 A2995 RMK A01 T02780046  RH  023%=      5-min Rain = 0
KCO1 132327Z 15003KT 28/05 A2995 RMK A01 T02780048  RH  023%=      5-min Rain = 0
KCO1 132328Z 15003KT 28/05 A2995 RMK A01 T02770050  RH  023%=      5-min Rain = 0
KCO1 132329Z 16004KT 28/05 A2995 RMK A01 T02770047  RH  023%=      5-min Rain = 0
KCO1 132330Z 16004KT 28/05 A2995 RMK A01 T02770045  RH  023%=      5-min Rain = 0
KCO1 132331Z 16003KT 28/05 A2995 RMK A01 T02770047  RH  023%=      5-min Rain = 0
KCO1 132332Z 15003KT 28/05 A2995 RMK A01 T02760046  RH  023%=      5-min Rain = 0
KCO1 132333Z 15003KT 28/05 A2995 RMK A01 T02760046  RH  023%=      5-min Rain = 0
KCO1 132334Z 14003KT 28/05 A2995 RMK A01 T02760046  RH  023%=      5-min Rain = 0
KCO1 132335Z 14004KT 28/05 A2995 RMK A01 T02760049  RH  023%=      5-min Rain = 0
KCO1 132336Z 14004KT 28/05 A2995 RMK A01 T02750050  RH  024%=      5-min Rain = 0
KCO1 132337Z 14005KT 27/05 A2995 RMK A01 T02740051  RH  024%=      5-min Rain = 0
KCO1 132338Z 14005KT 27/05 A2995 RMK A01 T02740050  RH  024%=      5-min Rain = 0
KCO1 132339Z 14005KT 27/05 A2995 RMK A01 T02730049  RH  024%=      5-min Rain = 0
KCO1 132340Z 14005KT 27/05 A2995 RMK A01 T02730050  RH  024%=      5-min Rain = 0
KCO1 132341Z 14005KT 27/05 A2995 RMK A01 T02720050  RH  024%=      5-min Rain = 0
KCO1 132342Z 13004KT 27/05 A2995 RMK A01 T02720051  RH  024%=      5-min Rain = 0
KCO1 132343Z 13004KT 27/05 A2995 RMK A01 T02710053  RH  025%=      5-min Rain = 0
KCO1 132344Z 13004KT 27/05 A2995 RMK A01 T02710052  RH  025%=      5-min Rain = 0
KCO1 132345Z 13004KT 27/05 A2995 RMK A01 T02700053  RH  025%=      5-min Rain = 0
KCO1 132346Z 13004KT 27/05 A2995 RMK A01 T02700053  RH  025%=      5-min Rain = 0
KCO1 132347Z 13004KT 27/05 A2995 RMK A01 T02690054  RH  025%=      5-min Rain = 0
KCO1 132348Z 14005KT 27/05 A2995 RMK A01 T02690054  RH  025%=      5-min Rain = 0
KCO1 132349Z 14005KT 27/06 A2995 RMK A01 T02680055  RH  026%=      5-min Rain = 0
KCO1 132350Z 14005KT 27/06 A2995 RMK A01 T02680056  RH  026%=      5-min Rain = 0
KCO1 132351Z 14005KT 27/06 A2995 RMK A01 T02670056  RH  026%=      5-min Rain = 0
KCO1 132352Z 14005KT 27/06 A2995 RMK A01 T02670055  RH  026%=      5-min Rain = 0
KCO1 132353Z 14005KT 27/06 A2995 RMK A01 T02660055  RH  026%=      5-min Rain = 0
KCO1 132354Z 14005KT 27/06 A2995 RMK A01 T02660056  RH  026%=      5-min Rain = 0
KCO1 132355Z 14005KT 27/06 A2995 RMK A01 T02650056  RH  026%=      5-min Rain = 0
KCO1 132356Z 13005KT 27/06 A2995 RMK A01 T02650056  RH  026%=      5-min Rain = 0
KCO1 132357Z 13005KT 26/06 A2995 RMK A01 T02640057  RH  026%=      5-min Rain = 0
KCO1 132358Z 13005KT 26/06 A2995 RMK A01 T02640057  RH  027%=      5-min Rain = 0
KCO1 132359Z 13005KT 26/06 A2995 RMK A01 T02630057  RH  027%=      5-min Rain = 0
KCO1 140000Z 13005KT 26/06 A2995 RMK A01 T02630056  RH  027%=      5-min Rain = 0
KCO1 140001Z 13005KT 26/06 A2995 RMK A01 T02620055  RH  027%=      5-min Rain = 0
KCO1 140002Z 13005KT 26/06 A2995 RMK A01 T02620055  RH  026%=      5-min Rain = 0
KCO1 140003Z 13005KT 26/06 A2995 RMK A01 T02620055  RH  027%=      5-min Rain = 0
KCO1 140004Z 13005KT 26/06 A2995 RMK A01 T02620055  RH  027%=      5-min Rain = 0
KCO1 140005Z 13004KT 26/05 A2995 RMK A01 T02620054  RH  026%=      5-min Rain = 0
KCO1 140006Z 13004KT 26/06 A2995 RMK A01 T02620055  RH  027%=      5-min Rain = 0
KCO1 140007Z 13004KT 26/05 A2995 RMK A01 T02620054  RH  026%=      5-min Rain = 0
KCO1 140008Z 13004KT 26/05 A2995 RMK A01 T02620054  RH  026%=      5-min Rain = 0
KCO1 140009Z 13004KT 26/06 A2995 RMK A01 T02620055  RH  027%=      5-min Rain = 0
KCO1 140010Z 13004KT 26/06 A2995 RMK A01 T02610055  RH  027%=      5-min Rain = 0
KCO1 140011Z 13004KT 26/06 A2995 RMK A01 T02610055  RH  027%=      5-min Rain = 0
KCO1 140012Z 13004KT 26/05 A2995 RMK A01 T02610054  RH  027%=      5-min Rain = 0
KCO1 140013Z 13005KT 26/06 A2995 RMK A01 T02610055  RH  027%=      5-min Rain = 0
KCO1 140014Z 13005KT 26/06 A2995 RMK A01 T02610055  RH  027%=      5-min Rain = 0
KCO1 140015Z 13005KT 26/06 A2996 RMK A01 T02610056  RH  027%=      5-min Rain = 0
KCO1 140016Z 13005KT 26/06 A2996 RMK A01 T02610057  RH  027%=      5-min Rain = 0
KCO1 140017Z 13005KT 26/06 A2996 RMK A01 T02600057  RH  027%=      5-min Rain = 0
KCO1 140018Z 13005KT 26/06 A2996 RMK A01 T02590058  RH  028%=      5-min Rain = 0
KCO1 140019Z 13005KT 26/06 A2996 RMK A01 T02580060  RH  028%=      5-min Rain = 0
KCO1 140020Z 13005KT 26/06 A2996 RMK A01 T02570060  RH  028%=      5-min Rain = 0
KCO1 140021Z 13005KT 26/06 A2996 RMK A01 T02560061  RH  029%=      5-min Rain = 0
KCO1 140022Z 13005KT 25/06 A2996 RMK A01 T02540060  RH  029%=      5-min Rain = 0
KCO1 140023Z 13005KT 25/06 A2996 RMK A01 T02540059  RH  029%=      5-min Rain = 0
KCO1 140024Z 13005KT 25/06 A2996 RMK A01 T02530059  RH  029%=      5-min Rain = 0
KCO1 140025Z 13005KT 25/06 A2996 RMK A01 T02530058  RH  029%=      5-min Rain = 0
KCO1 140026Z 13005KT 25/06 A2996 RMK A01 T02530057  RH  028%=      5-min Rain = 0
KCO1 140027Z 13005KT 25/06 A2996 RMK A01 T02530057  RH  028%=      5-min Rain = 0
KCO1 140028Z 13005KT 25/06 A2996 RMK A01 T02530057  RH  028%=      5-min Rain = 0
KCO1 140029Z 13005KT 25/06 A2996 RMK A01 T02530057  RH  028%=      5-min Rain = 0
KCO1 140030Z 13005KT 25/06 A2996 RMK A01 T02530057  RH  028%=      5-min Rain = 0
KCO1 140031Z 13005KT 25/06 A2996 RMK A01 T02530056  RH  028%=      5-min Rain = 0
KCO1 140032Z 13005KT 25/06 A2996 RMK A01 T02520056  RH  028%=      5-min Rain = 0
KCO1 140033Z 13005KT 25/06 A2996 RMK A01 T02530057  RH  028%=      5-min Rain = 0
KCO1 140034Z 13005KT 25/06 A2996 RMK A01 T02520057  RH  029%=      5-min Rain = 0
KCO1 140035Z 13005KT 25/06 A2996 RMK A01 T02520058  RH  029%=      5-min Rain = 0
KCO1 140036Z 13006KT 25/06 A2996 RMK A01 T02510058  RH  029%=      5-min Rain = 0
KCO1 140037Z 13006KT 25/06 A2996 RMK A01 T02510059  RH  029%=      5-min Rain = 0
KCO1 140038Z 13006KT 25/06 A2996 RMK A01 T02510060  RH  029%=      5-min Rain = 0
KCO1 140039Z 14007KT 25/06 A2996 RMK A01 T02500059  RH  029%=      5-min Rain = 0
KCO1 140040Z 15008KT 25/06 A2996 RMK A01 T02490059  RH  030%=      5-min Rain = 0
KCO1 140041Z 15008KT 25/06 A2996 RMK A01 T02480060  RH  030%=      5-min Rain = 0
KCO1 140042Z 17007KT 25/06 A2996 RMK A01 T02480058  RH  029%=      5-min Rain = 0
KCO1 140043Z 17008KT 25/06 A2996 RMK A01 T02480057  RH  029%=      5-min Rain = 0
KCO1 140044Z 17007KT 25/06 A2996 RMK A01 T02490060  RH  030%=      5-min Rain = 0
KCO1 140045Z 18007KT 25/06 A2996 RMK A01 T02500063  RH  030%=      5-min Rain = 0
KCO1 140046Z 19007KT 25/06 A2996 RMK A01 T02500064  RH  030%=      5-min Rain = 0
KCO1 140047Z 18008KT 25/06 A2997 RMK A01 T02500064  RH  030%=      5-min Rain = 0
KCO1 140048Z 18008KT 25/07 A2997 RMK A01 T02490065  RH  031%=      5-min Rain = 0
KCO1 140049Z 18008KT 25/07 A2997 RMK A01 T02490066  RH  031%=      5-min Rain = 0
KCO1 140050Z 19008KT 25/07 A2997 RMK A01 T02490067  RH  031%=      5-min Rain = 0
KCO1 140051Z 19009KT 25/07 A2997 RMK A01 T02480068  RH  031%=      5-min Rain = 0
KCO1 140052Z 19008KT 25/07 A2997 RMK A01 T02490069  RH  032%=      5-min Rain = 0
KCO1 140053Z 19007KT 25/07 A2997 RMK A01 T02490070  RH  032%=      5-min Rain = 0
KCO1 140054Z 19009KT 25/07 A2997 RMK A01 T02490071  RH  032%=      5-min Rain = 0
KCO1 140055Z 20008KT 25/07 A2997 RMK A01 T02490071  RH  032%=      5-min Rain = 0
KCO1 140056Z 19009KT 25/07 A2997 RMK A01 T02500071  RH  032%=      5-min Rain = 0
KCO1 140057Z 19008KT 25/07 A2997 RMK A01 T02510071  RH  032%=      5-min Rain = 0
KCO1 140058Z 19008KT 25/07 A2997 RMK A01 T02510071  RH  032%=      5-min Rain = 0
KCO1 140059Z 20008KT 25/07 A2997 RMK A01 T02510072  RH  032%=      5-min Rain = 0
KCO1 140100Z 20009KT 25/07 A2997 RMK A01 T02510072  RH  032%=      5-min Rain = 0
KCO1 140101Z 20009KT 25/07 A2997 RMK A01 T02510073  RH  032%=      5-min Rain = 0
KCO1 140102Z 20009KT 25/07 A2997 RMK A01 T02510072  RH  032%=      5-min Rain = 0
KCO1 140103Z 20008KT 25/07 A2997 RMK A01 T02520072  RH  032%=      5-min Rain = 0
KCO1 140104Z 20009KT 25/07 A2997 RMK A01 T02520073  RH  032%=      5-min Rain = 0
KCO1 140105Z 20009KT 25/07 A2997 RMK A01 T02520073  RH  032%=      5-min Rain = 0
KCO1 140106Z 20010KT 25/07 A2997 RMK A01 T02520073  RH  032%=      5-min Rain = 0
KCO1 140107Z 20008KT 25/07 A2997 RMK A01 T02520073  RH  032%=      5-min Rain = 0
KCO1 140108Z 19010KT 25/07 A2997 RMK A01 T02520074  RH  032%=      5-min Rain = 0
KCO1 140109Z 20010KT 25/07 A2997 RMK A01 T02520074  RH  032%=      5-min Rain = 0
KCO1 140110Z 19010KT 25/07 A2997 RMK A01 T02520073  RH  032%=      5-min Rain = 0
KCO1 140111Z 19009KT 25/07 A2997 RMK A01 T02520074  RH  032%=      5-min Rain = 0
KCO1 140112Z 19009KT 25/07 A2997 RMK A01 T02520074  RH  032%=      5-min Rain = 0
KCO1 140113Z 19009KT 25/07 A2997 RMK A01 T02520074  RH  032%=      5-min Rain = 0
KCO1 140114Z 18009KT 25/07 A2997 RMK A01 T02520074  RH  032%=      5-min Rain = 0
KCO1 140115Z 18008KT 25/07 A2997 RMK A01 T02520074  RH  032%=      5-min Rain = 0
KCO1 140116Z 18009KT 25/07 A2997 RMK A01 T02510074  RH  032%=      5-min Rain = 0
KCO1 140117Z 18007KT 25/07 A2997 RMK A01 T02510074  RH  032%=      5-min Rain = 0
KCO1 140118Z 18008KT 25/07 A2997 RMK A01 T02510074  RH  032%=      5-min Rain = 0
KCO1 140119Z 17008KT 25/07 A2997 RMK A01 T02500074  RH  033%=      5-min Rain = 0
KCO1 140120Z 18008KT 25/07 A2997 RMK A01 T02490074  RH  033%=      5-min Rain = 0
KCO1 140121Z 18009KT 25/07 A2997 RMK A01 T02490074  RH  033%=      5-min Rain = 0
KCO1 140122Z 18010KT 25/07 A2997 RMK A01 T02490074  RH  033%=      5-min Rain = 0
KCO1 140123Z 18010KT 25/07 A2997 RMK A01 T02500074  RH  033%=      5-min Rain = 0
KCO1 140124Z 18010KT 25/07 A2997 RMK A01 T02500074  RH  033%=      5-min Rain = 0
KCO1 140125Z 18010KT 25/08 A2997 RMK A01 T02500075  RH  033%=      5-min Rain = 0
KCO1 140126Z 18009KT 25/08 A2997 RMK A01 T02500076  RH  033%=      5-min Rain = 0
KCO1 140127Z 18010KT 25/08 A2997 RMK A01 T02500076  RH  033%=      5-min Rain = 0
KCO1 140128Z 17010KT 25/08 A2997 RMK A01 T02500076  RH  033%=      5-min Rain = 0
KCO1 140129Z 18009KT 25/08 A2997 RMK A01 T02490076  RH  033%=      5-min Rain = 0
KCO1 140130Z 18010KT 25/08 A2997 RMK A01 T02490076  RH  033%=      5-min Rain = 0
KCO1 140131Z 18010KT 25/08 A2997 RMK A01 T02490077  RH  033%=      5-min Rain = 0
KCO1 140132Z 18010KT 25/08 A2997 RMK A01 T02490076  RH  033%=      5-min Rain = 0
KCO1 140133Z 19010KT 25/08 A2997 RMK A01 T02490076  RH  033%=      5-min Rain = 0
KCO1 140134Z 19010KT 25/08 A2997 RMK A01 T02490077  RH  033%=      5-min Rain = 0
KCO1 140135Z 19011KT 25/08 A2997 RMK A01 T02490077  RH  033%=      5-min Rain = 0
KCO1 140136Z 19011G17KT 25/08 A2997 RMK A01 T02490078  RH  034%=      5-min Rain = 0
KCO1 140137Z 19011KT 25/08 A2997 RMK A01 T02490077  RH  034%=      5-min Rain = 0
KCO1 140138Z 19012KT 25/08 A2997 RMK A01 T02490077  RH  033%=      5-min Rain = 0
KCO1 140139Z 20012KT 25/08 A2997 RMK A01 T02490078  RH  034%=      5-min Rain = 0
KCO1 140140Z 19011KT 25/08 A2997 RMK A01 T02490078  RH  034%=      5-min Rain = 0
KCO1 140141Z 19009KT 25/08 A2997 RMK A01 T02490078  RH  034%=      5-min Rain = 0
KCO1 140142Z 19008KT 25/08 A2997 RMK A01 T02480079  RH  034%=      5-min Rain = 0
KCO1 140143Z 19009KT 25/08 A2998 RMK A01 T02470079  RH  034%=      5-min Rain = 0
KCO1 140144Z 18009KT 25/08 A2998 RMK A01 T02460079  RH  035%=      5-min Rain = 0
KCO1 140145Z 19009KT 25/08 A2998 RMK A01 T02450080  RH  035%=      5-min Rain = 0
KCO1 140146Z 19011KT 24/08 A2998 RMK A01 T02440080  RH  035%=      5-min Rain = 0
KCO1 140147Z 19013KT 24/08 A2997 RMK A01 T02440079  RH  035%=      5-min Rain = 0
KCO1 140148Z 19013KT 25/08 A2998 RMK A01 T02450078  RH  035%=      5-min Rain = 0
KCO1 140149Z 20013KT 25/08 A2998 RMK A01 T02460079  RH  034%=      5-min Rain = 0
KCO1 140150Z 20013KT 25/08 A2998 RMK A01 T02460079  RH  034%=      5-min Rain = 0
KCO1 140151Z 20013KT 25/08 A2998 RMK A01 T02460078  RH  034%=      5-min Rain = 0
KCO1 140152Z 19012KT 25/08 A2998 RMK A01 T02460079  RH  034%=      5-min Rain = 0
KCO1 140153Z 20011KT 25/08 A2998 RMK A01 T02470079  RH  034%=      5-min Rain = 0
KCO1 140154Z 20012KT 25/08 A2998 RMK A01 T02460079  RH  034%=      5-min Rain = 0
KCO1 140155Z 20012KT 25/08 A2998 RMK A01 T02460079  RH  035%=      5-min Rain = 0
KCO1 140156Z 19010KT 25/08 A2998 RMK A01 T02460079  RH  035%=      5-min Rain = 0
KCO1 140157Z 20011KT 25/08 A2998 RMK A01 T02450080  RH  035%=      5-min Rain = 0
KCO1 140158Z 19011KT 25/08 A2998 RMK A01 T02450080  RH  035%=      5-min Rain = 0
KCO1 140159Z 19010KT 25/08 A2998 RMK A01 T02450080  RH  035%=      5-min Rain = 0
KCO1 140200Z 19010G15KT 24/08 A2998 RMK A01 T02440080  RH  035%=      5-min Rain = 0
KCO1 140201Z 19012KT 24/08 A2998 RMK A01 T02440080  RH  035%=      5-min Rain = 0
KCO1 140202Z 20013KT 24/08 A2998 RMK A01 T02430080  RH  035%=      5-min Rain = 0
KCO1 140203Z 19013KT 24/08 A2998 RMK A01 T02440079  RH  035%=      5-min Rain = 0
KCO1 140204Z 19012KT 24/08 A2998 RMK A01 T02440079  RH  035%=      5-min Rain = 0
KCO1 140205Z 20013KT 24/08 A2998 RMK A01 T02440080  RH  035%=      5-min Rain = 0
KCO1 140206Z 20012KT 24/08 A2998 RMK A01 T02440080  RH  035%=      5-min Rain = 0
KCO1 140207Z 20011KT 24/08 A2998 RMK A01 T02440080  RH  035%=      5-min Rain = 0
KCO1 140208Z 20012KT 24/08 A2998 RMK A01 T02430080  RH  035%=      5-min Rain = 0
KCO1 140209Z 20012KT 24/08 A2998 RMK A01 T02430080  RH  035%=      5-min Rain = 0
KCO1 140210Z 20012KT 24/08 A2998 RMK A01 T02430080  RH  035%=      5-min Rain = 0
KCO1 140211Z 20013KT 24/08 A2998 RMK A01 T02420079  RH  035%=      5-min Rain = 0
KCO1 140212Z 19011KT 24/08 A2998 RMK A01 T02430080  RH  035%=      5-min Rain = 0
KCO1 140213Z 20011KT 24/08 A2998 RMK A01 T02430080  RH  035%=      5-min Rain = 0
KCO1 140214Z 19011KT 24/08 A2998 RMK A01 T02420080  RH  036%=      5-min Rain = 0
KCO1 140215Z 19011KT 24/08 A2998 RMK A01 T02410080  RH  036%=      5-min Rain = 0
KCO1 140216Z 19011KT 24/08 A2998 RMK A01 T02410080  RH  036%=      5-min Rain = 0
KCO1 140217Z 20011KT 24/08 A2998 RMK A01 T02410080  RH  036%=      5-min Rain = 0
KCO1 140218Z 20010KT 24/08 A2998 RMK A01 T02410080  RH  036%=      5-min Rain = 0
KCO1 140219Z 20011KT 24/08 A2998 RMK A01 T02410079  RH  035%=      5-min Rain = 0
KCO1 140220Z 20012KT 24/08 A2998 RMK A01 T02410078  RH  035%=      5-min Rain = 0
KCO1 140221Z 19012KT 24/08 A2998 RMK A01 T02400078  RH  035%=      5-min Rain = 0
KCO1 140222Z 20012KT 24/08 A2998 RMK A01 T02410077  RH  035%=      5-min Rain = 0
KCO1 140223Z 20013KT 24/08 A2998 RMK A01 T02400077  RH  035%=      5-min Rain = 0
KCO1 140224Z 19015KT 24/08 A2998 RMK A01 T02410076  RH  035%=      5-min Rain = 0
KCO1 140225Z 20013KT 24/08 A2998 RMK A01 T02400075  RH  035%=      5-min Rain = 0
KCO1 140226Z 20014KT 24/08 A2998 RMK A01 T02400075  RH  035%=      5-min Rain = 0
KCO1 140227Z 20013KT 24/08 A2998 RMK A01 T02410075  RH  035%=      5-min Rain = 0
KCO1 140228Z 20014KT 24/08 A2998 RMK A01 T02410075  RH  035%=      5-min Rain = 0
KCO1 140229Z 20013KT 24/08 A2998 RMK A01 T02410075  RH  034%=      5-min Rain = 0
KCO1 140230Z 19013KT 24/08 A2998 RMK A01 T02400075  RH  035%=      5-min Rain = 0
KCO1 140231Z 20013KT 24/08 A2998 RMK A01 T02400075  RH  035%=      5-min Rain = 0
KCO1 140232Z 19012KT 24/08 A2998 RMK A01 T02400075  RH  035%=      5-min Rain = 0
KCO1 140233Z 19011KT 24/08 A2998 RMK A01 T02390075  RH  035%=      5-min Rain = 0
KCO1 140234Z 19013KT 24/08 A2998 RMK A01 T02380075  RH  035%=      5-min Rain = 0
KCO1 140235Z 19011KT 24/08 A2998 RMK A01 T02380075  RH  035%=      5-min Rain = 0
KCO1 140236Z 19012KT 24/08 A2998 RMK A01 T02380075  RH  035%=      5-min Rain = 0
KCO1 140237Z 19011KT 24/08 A2998 RMK A01 T02380076  RH  035%=      5-min Rain = 0
KCO1 140238Z 19011KT 24/08 A2998 RMK A01 T02370076  RH  036%=      5-min Rain = 0
KCO1 140239Z 19012KT 24/08 A2998 RMK A01 T02370076  RH  036%=      5-min Rain = 0
KCO1 140240Z 20011KT 24/08 A2998 RMK A01 T02370077  RH  036%=      5-min Rain = 0
KCO1 140241Z 20010KT 24/08 A2998 RMK A01 T02370077  RH  036%=      5-min Rain = 0
KCO1 140242Z 19010KT 24/08 A2998 RMK A01 T02370078  RH  036%=      5-min Rain = 0
KCO1 140243Z 20011KT 24/08 A2998 RMK A01 T02370078  RH  036%=      5-min Rain = 0
KCO1 140244Z 20015KT 24/08 A2998 RMK A01 T02370079  RH  036%=      5-min Rain = 0
KCO1 140245Z 20013KT 24/08 A2998 RMK A01 T02370079  RH  036%=      5-min Rain = 0
KCO1 140246Z 20012KT 24/08 A2998 RMK A01 T02360079  RH  037%=      5-min Rain = 0
KCO1 140247Z 20012KT 24/08 A2998 RMK A01 T02360080  RH  037%=      5-min Rain = 0
KCO1 140248Z 20012KT 24/08 A2998 RMK A01 T02370081  RH  037%=      5-min Rain = 0
KCO1 140249Z 20010KT 24/08 A2999 RMK A01 T02360080  RH  037%=      5-min Rain = 0
KCO1 140250Z 20010KT 24/08 A2998 RMK A01 T02360081  RH  037%=      5-min Rain = 0
KCO1 140251Z 20009KT 24/08 A2998 RMK A01 T02350081  RH  037%=      5-min Rain = 0
KCO1 140252Z 20009KT 24/08 A2999 RMK A01 T02350081  RH  037%=      5-min Rain = 0
KCO1 140253Z 20009KT 24/08 A2999 RMK A01 T02350082  RH  038%=      5-min Rain = 0
KCO1 140254Z 20010KT 23/08 A2999 RMK A01 T02340082  RH  038%=      5-min Rain = 0
KCO1 140255Z 20010KT 23/08 A2999 RMK A01 T02340083  RH  038%=      5-min Rain = 0
KCO1 140256Z 20010KT 23/08 A2999 RMK A01 T02330083  RH  038%=      5-min Rain = 0
KCO1 140257Z 20010KT 23/08 A2999 RMK A01 T02330083  RH  038%=      5-min Rain = 0
KCO1 140258Z 21009KT 23/08 A2999 RMK A01 T02330084  RH  039%=      5-min Rain = 0
KCO1 140259Z 21008KT 23/08 A2999 RMK A01 T02330084  RH  039%=      5-min Rain = 0
KCO1 140300Z 20010KT 23/08 A2999 RMK A01 T02330084  RH  039%=      5-min Rain = 0
KCO1 140301Z 20009KT 23/08 A2999 RMK A01 T02320084  RH  039%=      5-min Rain = 0
KCO1 140302Z 20009KT 23/09 A2999 RMK A01 T02320085  RH  039%=      5-min Rain = 0
KCO1 140303Z 20009KT 23/09 A2999 RMK A01 T02320085  RH  039%=      5-min Rain = 0
KCO1 140304Z 20007KT 23/09 A2999 RMK A01 T02320085  RH  039%=      5-min Rain = 0
KCO1 140305Z 21008KT 23/09 A2999 RMK A01 T02310085  RH  039%=      5-min Rain = 0
KCO1 140306Z 21008KT 23/09 A2999 RMK A01 T02310085  RH  039%=      5-min Rain = 0
KCO1 140307Z 21008KT 23/09 A2999 RMK A01 T02310085  RH  039%=      5-min Rain = 0
KCO1 140308Z 21008KT 23/09 A2999 RMK A01 T02310086  RH  039%=      5-min Rain = 0
KCO1 140309Z 21007KT 23/09 A2999 RMK A01 T02310086  RH  039%=      5-min Rain = 0
KCO1 140310Z 20009KT 23/09 A2999 RMK A01 T02300086  RH  040%=      5-min Rain = 0
KCO1 140311Z 21009KT 23/09 A2999 RMK A01 T02300087  RH  040%=      5-min Rain = 0
KCO1 140312Z 20009KT 23/09 A2999 RMK A01 T02300087  RH  040%=      5-min Rain = 0
KCO1 140313Z 20009KT 23/09 A2999 RMK A01 T02300087  RH  040%=      5-min Rain = 0
KCO1 140314Z 20008KT 23/09 A2999 RMK A01 T02300088  RH  040%=      5-min Rain = 0
KCO1 140315Z 20008KT 23/09 A2999 RMK A01 T02290088  RH  040%=      5-min Rain = 0
KCO1 140316Z 20009KT 23/09 A2999 RMK A01 T02290088  RH  041%=      5-min Rain = 0
KCO1 140317Z 20009KT 23/09 A2999 RMK A01 T02290089  RH  041%=      5-min Rain = 0
KCO1 140318Z 20009KT 23/09 A2999 RMK A01 T02280089  RH  041%=      5-min Rain = 0
KCO1 140319Z 20009KT 23/09 A2999 RMK A01 T02280090  RH  041%=      5-min Rain = 0
KCO1 140320Z 20010KT 23/09 A2999 RMK A01 T02280089  RH  041%=      5-min Rain = 0
KCO1 140321Z 20010KT 23/09 A2999 RMK A01 T02280090  RH  041%=      5-min Rain = 0
KCO1 140322Z 20009KT 23/09 A2999 RMK A01 T02280091  RH  042%=      5-min Rain = 0
KCO1 140323Z 20009KT 23/09 A2999 RMK A01 T02280091  RH  042%=      5-min Rain = 0
KCO1 140324Z 20009KT 23/09 A2999 RMK A01 T02270091  RH  042%=      5-min Rain = 0
KCO1 140325Z 20009KT 23/09 A2999 RMK A01 T02270091  RH  042%=      5-min Rain = 0
KCO1 140326Z 19010KT 23/09 A2999 RMK A01 T02270092  RH  042%=      5-min Rain = 0
KCO1 140327Z 19009KT 23/09 A2999 RMK A01 T02260092  RH  042%=      5-min Rain = 0
KCO1 140328Z 19009KT 23/09 A2999 RMK A01 T02260093  RH  043%=      5-min Rain = 0
KCO1 140329Z 19009KT 23/09 A2999 RMK A01 T02250093  RH  043%=      5-min Rain = 0
KCO1 140330Z 19008KT 23/09 A2999 RMK A01 T02250093  RH  043%=      5-min Rain = 0
KCO1 140331Z 19009KT 23/09 A2999 RMK A01 T02250093  RH  043%=      5-min Rain = 0
KCO1 140332Z 19009KT 22/09 A2999 RMK A01 T02240094  RH  043%=      5-min Rain = 0
KCO1 140333Z 19009KT 22/09 A2999 RMK A01 T02240094  RH  043%=      5-min Rain = 0
KCO1 140334Z 19009KT 22/10 A2999 RMK A01 T02240095  RH  044%=      5-min Rain = 0
KCO1 140335Z 19009KT 22/10 A2999 RMK A01 T02240095  RH  044%=      5-min Rain = 0
KCO1 140336Z 19009KT 22/10 A2999 RMK A01 T02240095  RH  044%=      5-min Rain = 0
KCO1 140337Z 19009KT 22/10 A2999 RMK A01 T02230095  RH  044%=      5-min Rain = 0
KCO1 140338Z 20009KT 22/10 A2999 RMK A01 T02230096  RH  044%=      5-min Rain = 0
KCO1 140339Z 19008KT 22/10 A2999 RMK A01 T02230096  RH  044%=      5-min Rain = 0
KCO1 140340Z 19008KT 22/10 A2999 RMK A01 T02230096  RH  045%=      5-min Rain = 0
KCO1 140341Z 20008KT 22/10 A2999 RMK A01 T02230097  RH  045%=      5-min Rain = 0
KCO1 140342Z 20008KT 22/10 A2999 RMK A01 T02230096  RH  045%=      5-min Rain = 0
KCO1 140343Z 20008KT 22/10 A2999 RMK A01 T02230097  RH  045%=      5-min Rain = 0
KCO1 140344Z 20007KT 22/10 A2999 RMK A01 T02220097  RH  045%=      5-min Rain = 0
KCO1 140345Z 19008KT 22/10 A2999 RMK A01 T02230097  RH  045%=      5-min Rain = 0
KCO1 140346Z 19008KT 22/10 A2999 RMK A01 T02230097  RH  045%=      5-min Rain = 0
KCO1 140347Z 19007KT 22/10 A2999 RMK A01 T02220097  RH  045%=      5-min Rain = 0
KCO1 140348Z 19008KT 22/10 A2999 RMK A01 T02220098  RH  045%=      5-min Rain = 0
KCO1 140349Z 19008KT 22/10 A2999 RMK A01 T02210097  RH  045%=      5-min Rain = 0
KCO1 140350Z 19008KT 22/10 A2999 RMK A01 T02210097  RH  045%=      5-min Rain = 0
KCO1 140351Z 19008KT 22/10 A2999 RMK A01 T02210097  RH  045%=      5-min Rain = 0
KCO1 140352Z 19007KT 22/10 A30 RMK A01 T02210098  RH  045%=      5-min Rain = 0
KCO1 140353Z 19008KT 22/10 A30 RMK A01 T02210098  RH  046%=      5-min Rain = 0
KCO1 140354Z 19008KT 22/10 A30 RMK A01 T02210098  RH  046%=      5-min Rain = 0
KCO1 140355Z 20008KT 22/10 A30 RMK A01 T02210098  RH  046%=      5-min Rain = 0
KCO1 140356Z 20008KT 22/10 A30 RMK A01 T02210098  RH  046%=      5-min Rain = 0
KCO1 140357Z 19008KT 22/10 A30 RMK A01 T02210098  RH  046%=      5-min Rain = 0
KCO1 140358Z 20007KT 22/10 A30 RMK A01 T02210099  RH  046%=      5-min Rain = 0
KCO1 140359Z 20008KT 22/10 A30 RMK A01 T02200099  RH  046%=      5-min Rain = 0
KCO1 140400Z 19007KT 22/10 A30 RMK A01 T02200099  RH  046%=      5-min Rain = 0
KCO1 140401Z 20008KT 22/10 A30 RMK A01 T02200099  RH  046%=      5-min Rain = 0
KCO1 140402Z 20007KT 22/10 A30 RMK A01 T02200099  RH  046%=      5-min Rain = 0
KCO1 140403Z 22006KT 22/10 A30 RMK A01 T02190098  RH  046%=      5-min Rain = 0
KCO1 140404Z 22007KT 22/10 A30 RMK A01 T02200099  RH  046%=      5-min Rain = 0
KCO1 140405Z 22007KT 22/10 A30 RMK A01 T02190099  RH  046%=      5-min Rain = 0
KCO1 140406Z 22006KT 22/10 A30 RMK A01 T02190099  RH  046%=      5-min Rain = 0
KCO1 140407Z 22006KT 22/10 A30 RMK A01 T02190099  RH  046%=      5-min Rain = 0
KCO1 140408Z 22006KT 22/10 A30 RMK A01 T02190099  RH  046%=      5-min Rain = 0
KCO1 140409Z 22006KT 22/10 A30 RMK A01 T02190100  RH  047%=      5-min Rain = 0
KCO1 140410Z 22007KT 22/10 A30 RMK A01 T02180100  RH  047%=      5-min Rain = 0
KCO1 140411Z 22007KT 22/10 A30 RMK A01 T02180099  RH  047%=      5-min Rain = 0
KCO1 140412Z 21008KT 22/10 A30 RMK A01 T02180100  RH  047%=      5-min Rain = 0
KCO1 140413Z 21006KT 22/10 A30 RMK A01 T02180100  RH  047%=      5-min Rain = 0
KCO1 140414Z 20006KT 22/10 A30 RMK A01 T02180100  RH  047%=      5-min Rain = 0
KCO1 140415Z 19007KT 22/10 A30 RMK A01 T02180101  RH  047%=      5-min Rain = 0
KCO1 140416Z 19007KT 22/10 A30 RMK A01 T02170101  RH  047%=      5-min Rain = 0
KCO1 140417Z 19007KT 22/10 A30 RMK A01 T02160101  RH  048%=      5-min Rain = 0
KCO1 140418Z 19007KT 22/10 A30 RMK A01 T02160101  RH  048%=      5-min Rain = 0
KCO1 140419Z 19007KT 22/10 A30 RMK A01 T02150101  RH  048%=      5-min Rain = 0
KCO1 140420Z 19007KT 22/10 A30 RMK A01 T02150101  RH  048%=      5-min Rain = 0
KCO1 140421Z 18007KT 22/10 A30 RMK A01 T02150101  RH  048%=      5-min Rain = 0
KCO1 140422Z 18007KT 22/10 A30 RMK A01 T02150102  RH  048%=      5-min Rain = 0
KCO1 140423Z 18008KT 21/10 A2999 RMK A01 T02140101  RH  048%=      5-min Rain = 0
KCO1 140424Z 18008KT 21/10 A2999 RMK A01 T02140101  RH  048%=      5-min Rain = 0
KCO1 140425Z 18007KT 22/10 A2999 RMK A01 T02150101  RH  048%=      5-min Rain = 0
KCO1 140426Z 18008KT 21/10 A2999 RMK A01 T02140101  RH  048%=      5-min Rain = 0
KCO1 140427Z 18007KT 22/10 A2999 RMK A01 T02150101  RH  048%=      5-min Rain = 0
KCO1 140428Z 18007KT 21/10 A2999 RMK A01 T02140101  RH  048%=      5-min Rain = 0
KCO1 140429Z 18007KT 21/10 A2999 RMK A01 T02140102  RH  049%=      5-min Rain = 0
KCO1 140430Z 18007KT 21/10 A2999 RMK A01 T02140102  RH  049%=      5-min Rain = 0
KCO1 140431Z 18007KT 21/10 A2999 RMK A01 T02140102  RH  049%=      5-min Rain = 0
KCO1 140432Z 17007KT 21/10 A2999 RMK A01 T02140102  RH  049%=      5-min Rain = 0
KCO1 140433Z 18008KT 21/10 A2999 RMK A01 T02140103  RH  049%=      5-min Rain = 0
KCO1 140434Z 17007KT 21/10 A2999 RMK A01 T02140103  RH  049%=      5-min Rain = 0
KCO1 140435Z 18007KT 21/10 A2999 RMK A01 T02140103  RH  049%=      5-min Rain = 0
KCO1 140436Z 17008KT 21/10 A2999 RMK A01 T02140103  RH  049%=      5-min Rain = 0
KCO1 140437Z 18007KT 21/10 A2999 RMK A01 T02140103  RH  049%=      5-min Rain = 0
KCO1 140438Z 18007KT 21/10 A2999 RMK A01 T02130103  RH  049%=      5-min Rain = 0
KCO1 140439Z 18006KT 21/10 A2999 RMK A01 T02130104  RH  050%=      5-min Rain = 0
KCO1 140440Z 18007KT 21/10 A2999 RMK A01 T02120104  RH  050%=      5-min Rain = 0
KCO1 140441Z 18007KT 21/10 A2999 RMK A01 T02130104  RH  050%=      5-min Rain = 0
KCO1 140442Z 18008KT 21/10 A2999 RMK A01 T02120104  RH  050%=      5-min Rain = 0
KCO1 140443Z 18007KT 21/10 A2999 RMK A01 T02120104  RH  050%=      5-min Rain = 0
KCO1 140444Z 17007KT 21/10 A2999 RMK A01 T02120104  RH  050%=      5-min Rain = 0
KCO1 140445Z 17007KT 21/11 A2999 RMK A01 T02120105  RH  051%=      5-min Rain = 0
KCO1 140446Z 17008KT 21/11 A2999 RMK A01 T02110105  RH  051%=      5-min Rain = 0
KCO1 140447Z 17007KT 21/11 A2999 RMK A01 T02110106  RH  051%=      5-min Rain = 0
KCO1 140448Z 17007KT 21/11 A2999 RMK A01 T02110106  RH  051%=      5-min Rain = 0
KCO1 140449Z 17007KT 21/11 A2999 RMK A01 T02100107  RH  051%=      5-min Rain = 0
KCO1 140450Z 17007KT 21/11 A2999 RMK A01 T02100107  RH  052%=      5-min Rain = 0
KCO1 140451Z 17006KT 21/11 A2999 RMK A01 T02100108  RH  052%=      5-min Rain = 0
KCO1 140452Z 18006KT 21/11 A2999 RMK A01 T02100108  RH  052%=      5-min Rain = 0
KCO1 140453Z 18005KT 21/11 A2998 RMK A01 T02100108  RH  052%=      5-min Rain = 0
KCO1 140454Z 17005KT 21/11 A2998 RMK A01 T02100109  RH  052%=      5-min Rain = 0
KCO1 140455Z 18006KT 21/11 A2999 RMK A01 T02090109  RH  052%=      5-min Rain = 0
KCO1 140456Z 18005KT 21/11 A2999 RMK A01 T02090109  RH  053%=      5-min Rain = 0
KCO1 140457Z 18006KT 21/11 A2999 RMK A01 T02090110  RH  053%=      5-min Rain = 0
KCO1 140458Z 18005KT 21/11 A2999 RMK A01 T02090110  RH  053%=      5-min Rain = 0
KCO1 140459Z 18005KT 21/11 A2999 RMK A01 T02090110  RH  053%=      5-min Rain = 0

Page generated in 0.1281 seconds.